TristanJacob9 Games - Total: 12775
1 2 3 4 5 6 7 8 9 10 11 12 13
Rank Song Name Score PGAMB Combo Time
139 99.9 (Eurobeat Remix) [1.2x] 17,050 11 - 0 - 0 - 0 - 0 11 2023-10-28 16:03:47
129 99.9 (Eurobeat Remix) [1.2x] 280,000 179 - 2 - 0 - 0 - 0 181 2023-10-28 16:03:37
101 99.9 (Eurobeat Remix) [1.2x] 1,373,465 889 - 3 - 0 - 1 - 0 884 2023-10-28 16:03:16
99 99.9 (Eurobeat Remix) [1.2x] 1,540,950 993 - 0 - 2 - 1 - 0 995 2023-10-28 16:01:54
87 99.9 (Eurobeat Remix) [1.2x] 1,843,295 1,717 - 2 - 1 - 2 - 2 899 2023-10-28 16:00:57
117 Adcar [1.2x] 2,804,730 2,753 - 8 - 0 - 2 - 0 1,289 2023-10-28 15:58:45
247 Adcar [1.2x] 921,955 594 - 1 - 0 - 0 - 1 595 2023-10-28 15:56:20
11 O Wings that Embrace Senju Banmei [1.2x] [FC] 2,828,200 1,823 - 2 - 0 - 0 - 0 1,825 2023-10-28 15:54:29
906 Music -corrupted mix- [1.2x] 857,255 570 - 6 - 1 - 3 - 1 543 2023-10-28 15:52:18
29 Music -corrupted mix- [1.2x] [FC] 2,632,680 1,697 - 1 - 1 - 0 - 0 1,699 2023-10-28 15:51:30
68 Heterochromia Iridis [1.2x] [FC] 3,069,190 1,977 - 3 - 1 - 0 - 2 1,981 2023-10-28 15:49:29
57 floating point (Drumcorps Remix) [1.2x] 3,228,645 2,681 - 17 - 2 - 5 - 7 1,751 2023-10-28 15:47:08
2,233 Fushigi Usagi Milk Tei [1.2x] 937,200 603 - 2 - 0 - 0 - 0 605 2023-10-28 15:44:15
69 Fushigi Usagi Milk Tei [1.2x] 2,182,305 1,782 - 3 - 0 - 2 - 0 1,202 2023-10-28 15:43:25
41 Mdrqnxtagon [1.2x] 2,737,540 1,930 - 12 - 0 - 4 - 1 1,674 2023-10-28 15:40:27
108 Hyper Weaboo Vodka Shots [1.2x] 1,822,875 2,064 - 15 - 2 - 8 - 4 686 2023-10-28 15:37:35
353 Hyper Weaboo Vodka Shots [1.2x] 1,247,915 1,473 - 19 - 2 - 5 - 1 434 2023-10-28 15:35:49
6 DsMaxInkd [1.1x] 3,820,085 3,987 - 21 - 2 - 5 - 5 1,623 2023-10-21 21:01:12
9 DsMaxInkd [1.1x] 3,301,955 3,959 - 39 - 6 - 11 - 7 1,117 2023-10-21 20:57:16
53 POWA OF DA WILDANES [1.1x] 2,917,425 1,892 - 4 - 1 - 1 - 1 1,876 2023-10-21 20:53:58
123 LWVIIX (Lawn Wake 69) 2,580,905 1,661 - 5 - 0 - 0 - 1 1,666 2023-10-21 20:52:16
1,200 Crystal Chamber Combustion (bike) 255,665 189 - 11 - 0 - 1 - 0 149 2023-10-21 20:50:14
1,206 Crystal Chamber Combustion (bike) 305,220 179 - 21 - 1 - 0 - 3 201 2023-10-21 20:49:57
325 Sinthasomphone [1.2x] 441,540 286 - 2 - 0 - 1 - 0 284 2023-10-21 20:49:04
385 Tool-Assisted Speedcore (TQBF Frame Advance RMX) [1.2x] 2,268,985 1,993 - 0 - 3 - 1 - 1 1,173 2023-10-21 20:47:48
40 Braindead [1.2x] 3,959,310 2,599 - 4 - 2 - 1 - 2 2,529 2023-10-21 20:45:00
52 Braindead [1.2x] 571,760 368 - 1 - 1 - 3 - 2 370 2023-10-21 20:42:40
524 We Want To Run [1.2x] 1,510,700 973 - 2 - 0 - 0 - 0 975 2023-10-21 20:41:05
1 Odd-22 [1.2x] [AAA] [FC] 3,498,350 2,257 - 0 - 0 - 0 - 0 2,257 2023-10-21 20:37:53
35 Odd-22 [1.2x] [FC] 3,497,230 2,253 - 4 - 0 - 0 - 1 2,257 2023-10-21 20:35:11
1,037 Odd-22 [1.2x] 109,775 70 - 1 - 0 - 0 - 0 71 2023-10-21 20:33:06
1,749 Staple on Smile [1.2x] 88,075 56 - 1 - 0 - 0 - 0 57 2023-10-21 20:32:36
1,611 Staple on Smile [1.2x] 219,055 139 - 2 - 1 - 0 - 0 142 2023-10-21 20:32:29
1,617 Staple on Smile [1.2x] 208,390 132 - 4 - 0 - 1 - 0 135 2023-10-21 20:32:19
35 Clockwork Dragon [1.2x] 2,387,080 2,063 - 14 - 4 - 2 - 1 1,249 2023-10-21 20:32:04
108 Schwerkraft [1.2x] 1,343,245 868 - 4 - 1 - 1 - 0 865 2023-10-21 20:30:18
144 Schwerkraft [1.2x] 839,925 538 - 5 - 0 - 1 - 2 543 2023-10-21 20:29:28
158 Schwerkraft [1.2x] 421,010 270 - 2 - 0 - 0 - 2 272 2023-10-21 20:28:59
20 Breath After Breath [1.2x] 8,533,650 7,558 - 4 - 6 - 2 - 3 4,376 2023-10-21 20:27:45
95 MAXX Nintendo [1.2x] 1,465,675 1,138 - 15 - 0 - 1 - 2 836 2023-10-21 20:21:42
15 Dreamin' attraction!! (Extended) [1.2x] 4,212,035 3,773 - 9 - 2 - 2 - 4 2,135 2023-10-21 20:20:06
119 Dreamin' attraction!! (Extended) [1.2x] 9,025 5 - 1 - 0 - 0 - 0 6 2023-10-21 20:16:24
27 Starflight [1.2x] 2,231,955 2,479 - 28 - 1 - 7 - 4 863 2023-10-21 20:15:33
108 Fury [1.2x] 3,406,815 3,404 - 9 - 2 - 3 - 2 1,533 2023-10-21 20:13:16
37 Neko Nadetai [1.2x] 2,202,755 1,903 - 11 - 0 - 6 - 3 1,155 2023-10-21 20:09:54
218 Neko Nadetai [1.2x] 65,685 54 - 3 - 2 - 3 - 1 36 2023-10-21 20:08:18
318 Gamma Stop Sending Me High Quality Rips [1.2x] 1,406,115 905 - 1 - 2 - 0 - 1 908 2023-10-21 20:08:10
22 PEACE BREAKER [1.2x] 3,379,910 3,606 - 9 - 3 - 3 - 5 1,395 2023-10-21 20:06:52
9 Real Ultimate Power [1.2x] [FC] 3,192,960 2,060 - 0 - 0 - 0 - 2 2,060 2023-10-21 20:02:12
651 Powerflux [1.2x] 2,416,325 1,624 - 17 - 2 - 2 - 2 1,519 2023-10-21 20:00:05
12 OWA Raged at Home Run Derby [1.2x] 3,541,225 3,065 - 3 - 0 - 1 - 2 1,855 2023-10-21 19:58:10
120 OWA Raged at Home Run Derby [1.2x] 416,625 274 - 1 - 0 - 1 - 2 266 2023-10-21 19:55:13
196 brute force [1.2x] 1,283,390 825 - 2 - 2 - 0 - 1 829 2023-10-21 19:54:51
81 Endymion [1.2x] 1,786,910 1,181 - 0 - 0 - 2 - 1 1,138 2023-10-21 19:54:08
16 Make the Fire Burn [1.2x] [FC] 4,138,965 2,668 - 2 - 1 - 0 - 2 2,671 2023-10-21 19:52:21
19 Mishnu [1.2x] 3,500,265 2,825 - 3 - 0 - 1 - 0 1,946 2023-10-21 19:48:50
269 Mishnu [1.2x] 365,010 234 - 1 - 1 - 0 - 1 236 2023-10-21 19:46:02
246 Mishnu [1.2x] 506,575 326 - 1 - 0 - 0 - 0 327 2023-10-21 19:45:41
31 Mishnu [1.2x] [FC] 4,382,180 2,819 - 10 - 0 - 0 - 1 2,829 2023-10-21 19:45:11
301 Mishnu [1.2x] 170,225 109 - 1 - 0 - 0 - 0 110 2023-10-21 19:42:28
246 Mishnu [1.2x] 506,575 326 - 1 - 0 - 0 - 0 327 2023-10-21 19:42:12
267 Mishnu [1.2x] 360,330 249 - 2 - 0 - 7 - 0 225 2023-10-21 19:41:48
335 Mishnu [1.2x] 21,715 14 - 1 - 0 - 4 - 1 15 2023-10-21 19:41:28
3,482 Fireball 582,380 387 - 3 - 1 - 1 - 2 369 2023-10-21 19:41:13
4,448 Fireball 356,985 228 - 2 - 1 - 0 - 1 231 2023-10-21 19:40:40
4,469 Fireball 353,610 225 - 3 - 1 - 0 - 1 229 2023-10-21 19:40:15
826 Hello (BPM) 2021 667,950 426 - 6 - 0 - 0 - 0 432 2023-10-21 19:39:27
686 Hello (BPM) 2021 840,850 538 - 3 - 3 - 0 - 2 544 2023-10-21 19:38:52
665 Hello (BPM) 2021 876,475 563 - 3 - 0 - 0 - 0 566 2023-10-21 19:38:18
1,051 Hello (BPM) 2021 356,565 230 - 5 - 0 - 1 - 0 229 2023-10-21 19:37:42
23,969 Reluctantly Accepting Temporary Overexhaustion 51,940 34 - 2 - 0 - 1 - 0 33 2023-10-21 19:36:16
24,466 Reluctantly Accepting Temporary Overexhaustion 37,815 27 - 1 - 0 - 1 - 0 23 2023-10-21 19:36:08
24,347 Reluctantly Accepting Temporary Overexhaustion 46,950 27 - 4 - 0 - 0 - 0 31 2023-10-21 19:36:04
23,939 Reluctantly Accepting Temporary Overexhaustion 55,525 35 - 1 - 0 - 0 - 0 36 2023-10-21 19:35:58
25,954 Reluctantly Accepting Temporary Overexhaustion 17,080 14 - 0 - 0 - 2 - 0 10 2023-10-21 19:35:53
23,939 Reluctantly Accepting Temporary Overexhaustion 55,525 35 - 1 - 0 - 0 - 0 36 2023-10-21 19:35:49
23,391 Reluctantly Accepting Temporary Overexhaustion 75,675 48 - 1 - 0 - 0 - 0 49 2023-10-21 19:35:43
3 Time Signature [FC] [PB] 1,918,880 1,238 - 0 - 0 - 0 - 1 1,238 2023-10-21 19:35:02
4 goTe EX [FC] [PB] 5,833,800 3,759 - 5 - 1 - 0 - 4 3,765 2023-10-21 19:32:23
282 goTe EX 12,400 8 - 0 - 0 - 0 - 0 8 2023-10-21 19:28:03
153 goTe EX 1,037,115 691 - 5 - 0 - 1 - 0 656 2023-10-21 19:27:44
260 goTe EX 221,100 141 - 2 - 0 - 0 - 0 143 2023-10-21 19:26:42
248 goTe EX 346,650 222 - 2 - 0 - 0 - 0 224 2023-10-21 19:26:21
139 goTe EX 1,098,070 960 - 1 - 3 - 1 - 3 570 2023-10-21 19:25:47
260 goTe EX 221,375 142 - 1 - 0 - 0 - 0 143 2023-10-21 19:24:45
133 goTe EX 2,354,210 1,513 - 3 - 5 - 0 - 2 1,521 2023-10-21 19:24:16
758 Crystal Chamber Combustion (bike) 1,201,745 771 - 11 - 0 - 1 - 1 775 2023-10-21 19:21:45
1,249 Crystal Chamber Combustion (bike) 257,980 160 - 7 - 1 - 0 - 0 168 2023-10-21 19:21:07
227 Isometry 716,580 482 - 4 - 0 - 2 - 0 451 2023-10-21 19:20:49
186 Isometry 897,550 804 - 12 - 0 - 3 - 1 453 2023-10-21 19:20:04
2,386 Undici 1,274,080 822 - 0 - 0 - 0 - 1 822 2023-10-21 19:18:59
7,547 Undici 97,630 63 - 0 - 0 - 0 - 1 63 2023-10-21 19:18:02
4,697 Undici 528,530 341 - 0 - 0 - 0 - 1 341 2023-10-21 19:17:42
37,891 Death Piano 230,675 148 - 1 - 0 - 0 - 0 149 2023-10-21 19:17:03
46,139 Death Piano 67,650 42 - 2 - 0 - 0 - 0 44 2023-10-21 19:16:50
1,849 Death Piano 3,032,065 1,961 - 3 - 0 - 1 - 0 1,953 2023-10-21 19:16:35
15,355 Death Piano 1,820,500 1,210 - 1 - 1 - 1 - 1 1,155 2023-10-21 19:14:09
37,857 Death Piano 233,775 150 - 1 - 0 - 0 - 0 151 2023-10-21 19:12:46
16,378 Death Piano 1,790,040 1,154 - 6 - 0 - 1 - 0 1,154 2023-10-21 19:12:06
684 G e n g a o z o [1.2x] 1,789,685 1,151 - 2 - 3 - 0 - 4 1,156 2023-10-21 19:09:57
1 Jamais Vu [1.2x] [AAA] [FC] 3,089,150 1,993 - 0 - 0 - 0 - 0 1,993 2023-10-21 19:08:06
1,535 Jamais Vu [1.2x] 1,066,205 959 - 5 - 0 - 2 - 0 538 2023-10-21 19:05:45
2,410 Jamais Vu [1.2x] 405,615 262 - 3 - 0 - 1 - 0 261 2023-10-21 19:04:48
2,857 Jamais Vu [1.2x] 175,040 117 - 0 - 0 - 1 - 0 111 2023-10-21 19:04:15
2,859 Jamais Vu [1.2x] 181,075 116 - 1 - 0 - 0 - 0 117 2023-10-21 19:03:58
3,517 Jamais Vu [1.2x] 19,580 11 - 2 - 0 - 0 - 1 13 2023-10-21 19:03:09
1,698 Jamais Vu [1.2x] 737,995 641 - 5 - 0 - 3 - 0 385 2023-10-21 19:03:01
43 Illegal Trap [1.2x] 3,295,080 2,302 - 8 - 2 - 1 - 1 2,027 2023-10-21 19:01:29
153 Illegal Trap [1.2x] 448,315 297 - 1 - 0 - 1 - 0 285 2023-10-21 18:59:21
103 Illegal Trap [1.2x] 1,176,565 1,156 - 6 - 1 - 6 - 4 541 2023-10-21 18:58:37
119 Illegal Trap [1.2x] 1,055,410 676 - 6 - 0 - 0 - 2 682 2023-10-21 18:57:22
103 Illegal Trap [1.2x] 1,309,135 1,168 - 5 - 0 - 2 - 1 666 2023-10-21 18:56:23
196 Mondo Brutale 440,820 361 - 25 - 5 - 6 - 1 237 2023-10-16 22:17:23
1,220 Crystal Chamber Combustion (bike) 284,100 174 - 8 - 4 - 0 - 1 186 2023-10-16 22:16:27
755 Crystal Chamber Combustion (bike) 1,087,100 777 - 11 - 1 - 1 - 1 657 2023-10-16 22:16:12
791 Crystal Chamber Combustion (bike) 1,020,240 658 - 6 - 0 - 1 - 0 657 2023-10-16 22:15:28
1,212 Crystal Chamber Combustion (bike) 215,935 185 - 1 - 4 - 1 - 0 114 2023-10-16 22:14:55
1,406 Crystal Chamber Combustion (bike) 139,985 88 - 2 - 1 - 0 - 1 91 2023-10-16 22:14:40
1,532 Crystal Chamber Combustion (bike) 46,260 29 - 2 - 0 - 4 - 0 31 2023-10-16 22:14:27
485 Hello (BPM) 2021 1,579,670 1,017 - 6 - 0 - 1 - 1 1,019 2023-10-16 22:13:53
874 Hello (BPM) 2021 579,690 379 - 2 - 0 - 1 - 0 371 2023-10-16 22:12:56
383 Violent Arcade 1,535,005 988 - 2 - 1 - 0 - 0 991 2023-10-16 22:12:11
142 res extensa [1.1x] 431,900 277 - 2 - 0 - 0 - 0 279 2023-10-16 22:10:09
136 Neko Nadetai [1.2x] 1,302,605 1,216 - 13 - 2 - 6 - 1 632 2023-10-16 21:39:23
691 Gamma Stop Sending Me High Quality Rips [1.2x] 49,600 32 - 0 - 0 - 0 - 0 32 2023-10-16 21:38:18
9 Offset Packed [1.2x] 4,667,805 4,172 - 13 - 0 - 1 - 3 2,370 2023-10-16 21:36:34
313 Wanderflux [1.2x] 2,550,380 1,844 - 10 - 2 - 2 - 3 1,534 2023-10-16 21:31:53
570 Wanderflux [1.2x] 574,535 370 - 0 - 1 - 0 - 1 371 2023-10-16 21:30:22
907 Wanderflux [1.2x] 0 2 - 0 - 0 - 13 - 0 2 2023-10-16 21:30:04
581 Wanderflux [1.2x] 557,430 358 - 2 - 0 - 0 - 1 360 2023-10-16 21:29:35
817 Wanderflux [1.2x] 91,175 58 - 1 - 0 - 0 - 0 59 2023-10-16 21:29:18
798 Wanderflux [1.2x] 116,665 73 - 3 - 0 - 1 - 0 76 2023-10-16 21:29:09
45 Wanderflux [1.2x] 2,854,270 3,021 - 16 - 0 - 2 - 3 1,189 2023-10-16 21:28:50
139 PEACE BREAKER [1.2x] 1,880,850 1,425 - 6 - 2 - 2 - 2 1,096 2023-10-16 21:26:00
289 PEACE BREAKER [1.2x] 645,320 415 - 0 - 2 - 0 - 2 417 2023-10-16 21:24:43
223 PEACE BREAKER [1.2x] 1,276,545 831 - 3 - 0 - 1 - 1 819 2023-10-16 21:24:06
716 Hyper Weaboo Vodka Shots [1.4x] 697,860 583 - 14 - 0 - 2 - 1 374 2023-10-16 21:23:04
71 Comatose State [1.4x] 1,819,100 1,733 - 34 - 0 - 4 - 8 858 2023-10-16 21:22:24
77 Comatose State [1.4x] 1,652,550 1,720 - 43 - 1 - 7 - 8 697 2023-10-16 21:20:25
111 Illegal Trap [1.4x] 822,115 733 - 2 - 1 - 2 - 1 419 2023-10-16 21:18:32
57 Illegal Trap [1.4x] 2,423,220 2,286 - 20 - 2 - 5 - 7 1,162 2023-10-16 21:17:20
274 Happy Arnold=) [1.2x] 2,289,395 1,478 - 3 - 0 - 1 - 1 1,476 2023-10-16 21:15:02
992 Stress Free Style [1.4x] 52,425 33 - 1 - 0 - 0 - 0 34 2023-10-16 21:13:29
574 Happy Arnold=) [1.4x] 588,450 378 - 2 - 0 - 0 - 0 380 2023-10-16 21:13:17
919 Happy Arnold=) [1.4x] 97,065 62 - 1 - 0 - 1 - 0 63 2023-10-16 21:12:53
100 For UltraPlayers [1.4x] [FC] 2,561,045 1,650 - 2 - 1 - 0 - 3 1,653 2023-10-16 21:12:29
1,559 For UltraPlayers [1.4x] 154,725 99 - 1 - 0 - 0 - 0 100 2023-10-16 21:11:01
71 Double Helix [1.4x] [FC] 3,424,950 2,208 - 2 - 0 - 0 - 0 2,210 2023-10-16 21:10:25
2,211 Double Helix [1.4x] 209,240 140 - 2 - 0 - 1 - 0 132 2023-10-16 21:08:20
2,207 Double Helix [1.4x] 209,515 141 - 1 - 0 - 1 - 0 132 2023-10-16 21:08:08
2,241 Double Helix [1.4x] 200,705 127 - 9 - 0 - 2 - 0 129 2023-10-16 21:07:56
2,199 Double Helix [1.4x] 226,025 145 - 1 - 0 - 0 - 0 146 2023-10-16 21:07:44
339 The Limit Does Not Exist [1.4x] 2,372,080 1,598 - 9 - 1 - 1 - 2 1,491 2023-10-16 21:06:58
89 Doppelganger [1.4x] 2,215,775 1,806 - 3 - 0 - 1 - 2 1,222 2023-10-16 21:05:13
2,139 Doppelganger [1.4x] 46,825 30 - 1 - 0 - 3 - 1 31 2023-10-16 21:03:27
58 Caffeine [1.4x] [FC] 3,186,460 2,051 - 5 - 1 - 0 - 1 2,057 2023-10-16 21:02:53
893 Caffeine [1.5x] 355,255 217 - 14 - 1 - 0 - 0 232 2023-10-16 21:00:55
975 Caffeine [1.5x] 213,940 128 - 14 - 0 - 1 - 0 140 2023-10-16 21:00:44
980 Caffeine [1.5x] 206,540 117 - 20 - 0 - 1 - 0 137 2023-10-16 21:00:34
41 Odd-22 [1.2x] [FC] 3,496,695 2,252 - 4 - 1 - 0 - 3 2,257 2023-10-16 20:59:52
667 Odd-22 [1.2x] 755,830 486 - 2 - 0 - 0 - 1 488 2023-10-16 20:57:46
95 MAXX Nintendo [1.2x] 1,574,865 1,130 - 18 - 1 - 2 - 1 949 2023-10-16 20:56:26
32 MAXX Nintendo [1.2x] 1,997,610 1,704 - 22 - 0 - 2 - 1 1,055 2023-10-16 20:55:30
63 Staple on Smile [1.2x] 2,353,430 1,974 - 4 - 0 - 1 - 3 1,267 2023-10-16 20:53:38
644 Staple on Smile [1.2x] 1,598,425 1,394 - 9 - 4 - 3 - 2 830 2023-10-16 20:51:29
1,727 Staple on Smile [1.2x] 109,500 69 - 2 - 0 - 0 - 0 71 2023-10-16 20:50:16
85 Track title 6,230,135 4,017 - 3 - 0 - 0 - 2 4,020 2023-10-12 23:16:24
1,949 Death Piano 2,133,010 1,941 - 4 - 0 - 2 - 1 1,065 2023-10-12 23:11:47
238 Mondo Brutale 212,865 137 - 3 - 0 - 1 - 0 137 2023-10-12 23:09:00
195 Mondo Brutale 614,250 393 - 4 - 0 - 0 - 0 397 2023-10-12 23:08:25
278 Heartbreak Furry Fandom [0.85x] 2,549,025 1,632 - 13 - 4 - 1 - 3 1,648 2023-10-12 23:06:40
778 Crystal Chamber Combustion (bike) 1,097,315 704 - 4 - 1 - 0 - 2 709 2023-10-12 23:04:57
239 LWVIIX (Lawn Wake 69) 831,340 535 - 0 - 2 - 0 - 1 537 2023-10-12 23:04:17
389 LWVIIX (Lawn Wake 69) 205,040 137 - 0 - 0 - 1 - 0 130 2023-10-12 23:03:44
258 LWVIIX (Lawn Wake 69) 686,815 447 - 1 - 0 - 1 - 0 441 2023-10-12 23:03:28
245 LWVIIX (Lawn Wake 69) 770,350 497 - 0 - 0 - 0 - 0 497 2023-10-12 23:02:56
3 Fireball [PB] 2,769,880 2,015 - 7 - 1 - 1 - 2 1,660 2023-10-12 23:01:31
1 Blue Streaks of Happiness [FC] [PB] 8,976,460 5,788 - 4 - 0 - 0 - 2 5,792 2023-10-12 22:58:51
22 Gamma Stop Sending Me High Quality Rips [1.2x] 5,430,175 3,681 - 14 - 1 - 4 - 2 3,403 2023-10-12 22:51:58
68 44 Edit v2 [1.2x] 1,408,020 936 - 2 - 0 - 1 - 1 893 2023-10-12 22:48:33
78 44 Edit v2 [1.2x] 323,360 207 - 2 - 0 - 0 - 2 209 2023-10-12 22:47:31
286 That's Gonna Be [1.2x] 905,685 800 - 7 - 2 - 1 - 2 464 2023-10-12 22:45:51
567 That's Gonna Be [1.2x] 27,625 17 - 1 - 0 - 0 - 0 18 2023-10-12 22:45:07
13 Ra Variationen [1.2x] 4,736,525 4,400 - 9 - 0 - 3 - 1 2,315 2023-10-12 22:44:07
16 I'm A Fucking Idiot [1.2x] [FC] 4,043,845 2,605 - 4 - 1 - 0 - 3 2,610 2023-10-12 22:39:28
103 Endymion [1.2x] 531,290 352 - 0 - 0 - 1 - 0 338 2023-10-12 22:36:50
112 Endymion [1.2x] 363,680 233 - 2 - 0 - 0 - 1 235 2023-10-12 22:36:29
9 Time Signature [1.2x] 1,596,875 1,225 - 10 - 1 - 2 - 3 921 2023-10-12 22:35:45
127 Revenge (ReeK's "Dude, What's A Genre?" Remix) [1.2x] 4,595,170 3,036 - 13 - 1 - 4 - 1 2,923 2023-10-12 22:33:55
12 Braindead [1.2x] 4,565,200 3,436 - 4 - 0 - 2 - 4 2,675 2023-10-12 22:29:30
17 Sinthasomphone [1.2x] [FC] 2,975,880 1,915 - 6 - 0 - 0 - 1 1,921 2023-10-12 22:15:38
385 Sinthasomphone [1.2x] 29,370 19 - 0 - 0 - 0 - 4 19 2023-10-12 22:13:50
291 Sinthasomphone [1.2x] 642,580 408 - 8 - 0 - 0 - 1 416 2023-10-12 22:13:37
183 Mishnu [1.2x] 2,330,310 1,518 - 6 - 2 - 1 - 2 1,494 2023-10-12 22:12:57
241 Mishnu [1.2x] 547,340 363 - 0 - 0 - 1 - 0 348 2023-10-12 22:11:29
241 Mishnu [1.2x] 550,165 364 - 1 - 0 - 1 - 0 350 2023-10-12 22:11:00
323 Mishnu [1.2x] 53,975 34 - 1 - 0 - 0 - 0 35 2023-10-12 22:10:30
61 Mishnu [1.2x] 3,584,145 2,799 - 11 - 0 - 1 - 1 2,042 2023-10-12 22:10:14
35 Blue Streaks of Happiness 3,378,090 2,534 - 6 - 2 - 1 - 3 1,983 2023-10-12 22:07:18
35 Blue Streaks of Happiness 3,937,475 2,535 - 4 - 3 - 0 - 2 2,542 2023-10-12 22:04:51
39 Blue Streaks of Happiness 1,345,075 864 - 3 - 2 - 0 - 3 869 2023-10-12 22:02:18
45 Blue Streaks of Happiness 825,600 531 - 2 - 0 - 0 - 0 533 2023-10-12 22:01:06
105 goTe EX 3,814,345 2,452 - 10 - 1 - 0 - 3 2,463 2023-10-12 21:59:56
249 goTe EX 324,930 208 - 2 - 0 - 0 - 1 210 2023-10-12 21:57:16
138 goTe EX 1,492,200 958 - 6 - 0 - 1 - 2 964 2023-10-12 21:56:44
138 goTe EX 1,493,860 959 - 5 - 1 - 0 - 1 965 2023-10-12 21:55:39
246 goTe EX 348,200 223 - 2 - 0 - 0 - 0 225 2023-10-12 21:54:29
138 goTe EX 1,494,355 960 - 5 - 0 - 0 - 1 965 2023-10-12 21:53:51
260 goTe EX 213,800 133 - 6 - 0 - 0 - 0 139 2023-10-12 21:52:47
138 goTe EX 1,490,735 962 - 1 - 0 - 2 - 1 962 2023-10-12 21:52:26
258 goTe EX 221,375 142 - 1 - 0 - 0 - 0 143 2023-10-12 21:51:20
248 goTe EX 325,225 209 - 1 - 0 - 0 - 0 210 2023-10-12 21:50:53
252 goTe EX 302,735 193 - 2 - 1 - 0 - 1 196 2023-10-12 21:50:27
5 goTe EX 4,334,990 3,752 - 10 - 2 - 1 - 8 2,269 2023-10-12 21:49:35
178 goTe EX 657,845 438 - 1 - 0 - 1 - 1 417 2023-10-12 21:45:10
1,206 Crystal Chamber Combustion (bike) 272,895 183 - 12 - 5 - 1 - 1 169 2023-10-12 21:44:21
1,187 Crystal Chamber Combustion (bike) 318,320 199 - 8 - 0 - 1 - 1 207 2023-10-12 21:44:07
1,204 Crystal Chamber Combustion (bike) 286,760 190 - 3 - 1 - 2 - 0 182 2023-10-12 21:43:52
754 Crystal Chamber Combustion (bike) 1,221,730 780 - 10 - 0 - 0 - 1 790 2023-10-12 21:43:37
16 Crystal Chamber Combustion (bike) [FC] 3,505,095 2,233 - 32 - 3 - 0 - 1 2,268 2023-10-12 21:42:48
1,576 Crystal Chamber Combustion (bike) [1.2x] 10,850 7 - 0 - 0 - 0 - 0 7 2023-10-12 21:41:11
21 Illegal Trap [1.2x] [FC] 3,584,380 2,311 - 1 - 1 - 0 - 0 2,313 2023-10-12 21:40:54
91 99.9 (Eurobeat Remix) [1.2x] 1,347,280 1,202 - 9 - 1 - 1 - 2 684 2023-10-08 15:11:35
127 99.9 (Eurobeat Remix) [1.2x] 81,415 59 - 1 - 0 - 1 - 0 49 2023-10-08 15:10:37
127 99.9 (Eurobeat Remix) [1.2x] 71,915 49 - 1 - 0 - 1 - 0 45 2023-10-08 15:10:26
100 Illegal Trap [1.2x] 806,940 834 - 11 - 1 - 22 - 1 352 2023-10-08 15:09:57
115 Illegal Trap [1.2x] 764,095 490 - 7 - 0 - 1 - 1 493 2023-10-08 15:09:03
87 Zygourous Distribution 3,567,770 2,301 - 2 - 0 - 1 - 1 2,302 2023-10-07 13:13:08
295 LWVIIX (Lawn Wake 69) 622,255 399 - 3 - 0 - 0 - 1 402 2023-10-07 13:11:06
105 Zen'on [1.2x] 1,370,960 873 - 14 - 0 - 0 - 2 887 2023-10-07 13:10:29
105 Zen'on [1.2x] 1,101,840 852 - 20 - 0 - 4 - 1 629 2023-10-07 13:09:39
117 Zen'on [1.2x] 66,610 43 - 0 - 0 - 0 - 2 43 2023-10-07 13:08:52
101 Real Ultimate Power [1.2x] 2,338,390 1,504 - 4 - 2 - 0 - 1 1,510 2023-10-07 13:08:21
121 Real Ultimate Power [1.2x] 1,252,305 1,003 - 1 - 0 - 2 - 0 701 2023-10-07 13:06:47
90 Endymion [1.2x] 709,880 458 - 0 - 0 - 0 - 1 458 2023-10-07 13:05:41
78 Endymion [1.2x] 1,061,710 685 - 0 - 0 - 0 - 2 685 2023-10-07 13:05:18
20 Endymion [1.2x] 2,537,615 2,463 - 2 - 1 - 2 - 1 1,183 2023-10-07 13:04:15
28 Sinthasomphone [1.2x] 2,701,195 1,911 - 9 - 0 - 1 - 1 1,648 2023-10-07 13:02:01
371 Sinthasomphone [1.2x] 142,270 92 - 0 - 0 - 1 - 1 92 2023-10-07 13:00:12
274 Heartbreak Furry Fandom [0.9x] 1,599,020 1,653 - 44 - 0 - 7 - 3 680 2023-10-07 12:59:39
290 Heartbreak Furry Fandom 1,178,450 1,421 - 116 - 8 - 30 - 7 374 2023-10-07 12:57:42
762 Heartbreak Furry Fandom 229,135 279 - 25 - 0 - 7 - 1 71 2023-10-07 12:56:32
140 goTe EX 1,341,685 860 - 6 - 1 - 0 - 1 867 2023-10-07 12:56:03
124 goTe EX 1,916,490 1,730 - 6 - 0 - 2 - 2 964 2023-10-07 12:55:04
249 goTe EX 301,150 191 - 4 - 0 - 0 - 0 195 2023-10-07 12:53:09
1 Bolt Thrower In A Chinese Restaurant [FC] [PB] 5,061,120 3,262 - 4 - 0 - 0 - 4 3,266 2023-10-07 12:51:33
712 Bolt Thrower In A Chinese Restaurant 446,380 288 - 0 - 0 - 0 - 1 288 2023-10-07 12:48:26
626 Bolt Thrower In A Chinese Restaurant 660,005 425 - 1 - 0 - 0 - 1 426 2023-10-07 12:48:01
739 Bolt Thrower In A Chinese Restaurant 376,375 242 - 1 - 0 - 0 - 0 243 2023-10-07 12:47:32
629 Bolt Thrower In A Chinese Restaurant 650,685 419 - 1 - 0 - 0 - 2 420 2023-10-07 12:47:13
3 Bolt Thrower In A Chinese Restaurant 4,508,710 3,259 - 6 - 0 - 1 - 4 2,715 2023-10-07 12:46:21
656 Bolt Thrower In A Chinese Restaurant 587,175 378 - 1 - 0 - 0 - 0 379 2023-10-07 12:43:08
1,205 Crystal Chamber Combustion (bike) 305,810 181 - 19 - 1 - 0 - 1 201 2023-10-07 12:42:22
1,216 Crystal Chamber Combustion (bike) 229,910 167 - 27 - 5 - 2 - 1 131 2023-10-07 12:42:05
1,216 Crystal Chamber Combustion (bike) 243,135 174 - 17 - 0 - 4 - 0 144 2023-10-07 12:41:50
1,198 Crystal Chamber Combustion (bike) 309,165 194 - 5 - 2 - 0 - 1 201 2023-10-07 12:41:35
132 eXXXcaliborg.Error 844,625 546 - 3 - 0 - 8 - 1 546 2023-10-07 12:41:06
188 eXXXcaliborg.Error 361,635 231 - 2 - 1 - 0 - 1 234 2023-10-07 12:40:36
127 eXXXcaliborg.Error 1,003,795 647 - 1 - 0 - 1 - 1 648 2023-10-07 12:40:22
9 Mondo Brutale 3,115,330 2,109 - 11 - 1 - 2 - 4 1,953 2023-10-07 12:39:29
20 sub/zero [1.2x] [FC] 4,697,475 3,030 - 0 - 1 - 0 - 4 3,031 2023-10-07 12:36:34
1,716 Jamais Vu [1.2x] 932,475 605 - 1 - 0 - 5 - 0 601 2023-10-07 12:33:31
113 Jamais Vu [1.2x] 2,856,775 1,986 - 4 - 1 - 2 - 3 1,764 2023-10-07 12:32:39
35 Illegal Trap [1.2x] 2,784,850 2,307 - 2 - 2 - 2 - 2 1,516 2023-10-07 12:29:59
1,297 Fireball 1,218,135 1,127 - 19 - 2 - 3 - 6 594 2023-10-05 19:35:23
36 Blue Streaks of Happiness 1,824,835 1,175 - 2 - 1 - 0 - 1 1,178 2023-10-05 19:33:35
35 Blue Streaks of Happiness 5,039,045 3,242 - 11 - 0 - 0 - 4 3,253 2023-10-05 19:31:57
48 Blue Streaks of Happiness 379,475 244 - 1 - 0 - 0 - 0 245 2023-10-05 19:28:45
220 Tachyon Beam Cannon 4,023,505 2,865 - 5 - 0 - 2 - 0 2,447 2023-10-05 19:27:21
56 POWA OF DA WILDANES [1.1x] 1,628,460 1,083 - 5 - 1 - 2 - 0 1,032 2023-10-05 19:24:43
1,208 Crystal Chamber Combustion (bike) 252,975 180 - 15 - 2 - 4 - 1 151 2023-10-05 19:23:37
1,233 Crystal Chamber Combustion (bike) 270,565 164 - 17 - 0 - 1 - 0 176 2023-10-05 19:23:16
1,187 Crystal Chamber Combustion (bike) 297,395 202 - 2 - 1 - 1 - 0 186 2023-10-05 19:23:02
69 Staple on Smile [1.2x] 2,272,955 1,973 - 4 - 1 - 1 - 2 1,187 2023-10-05 19:22:29
2,233 Fushigi Usagi Milk Tei [1.2x] 807,655 598 - 5 - 0 - 2 - 0 478 2023-10-05 19:20:21
131 Comatose State [1.2x] 1,653,565 1,063 - 13 - 0 - 2 - 2 1,066 2023-10-05 19:18:48
41 Break The Silence [1.2x] [FC] 4,822,055 3,099 - 13 - 2 - 0 - 4 3,114 2023-10-05 19:15:37
285 Shindeiru 1,528,025 985 - 1 - 0 - 0 - 0 986 2023-10-05 19:12:00
550 Shindeiru 61,725 39 - 1 - 0 - 0 - 0 40 2023-10-05 19:10:38
22 LWVIIX (Lawn Wake 69) 2,905,395 2,311 - 12 - 1 - 3 - 4 1,632 2023-10-04 19:38:30
145 Neko Nadetai 1,141,480 759 - 6 - 0 - 2 - 0 723 2023-10-04 19:36:03
145 Neko Nadetai 1,194,480 769 - 2 - 0 - 0 - 1 771 2023-10-04 19:35:05
336 Break The Silence 1,139,285 735 - 1 - 0 - 4 - 0 736 2023-10-04 19:33:52
370 Break The Silence 928,460 598 - 2 - 0 - 3 - 3 600 2023-10-04 19:32:48
1 sub/zero [AAA] [FC] 4,698,050 3,031 - 0 - 0 - 0 - 0 3,031 2023-10-04 19:31:44
104 sub/zero 1,042,910 672 - 2 - 0 - 4 - 0 674 2023-10-04 19:27:34
245 goTe EX 301,150 191 - 4 - 0 - 0 - 0 195 2023-09-30 14:20:30
274 Tachyon Beam Cannon 2,133,525 1,374 - 3 - 0 - 0 - 0 1,377 2023-09-30 14:19:27
906 Tachyon Beam Cannon 111,305 71 - 1 - 0 - 0 - 1 72 2023-09-30 14:18:14
946 Tachyon Beam Cannon 35,375 22 - 1 - 0 - 0 - 0 23 2023-09-30 14:18:08
710 Tachyon Beam Cannon 299,930 192 - 1 - 1 - 0 - 0 194 2023-09-30 14:18:04
21 LWVIIX (Lawn Wake 69) 3,202,275 2,317 - 8 - 1 - 1 - 1 1,926 2023-09-30 14:17:32
238 Heartbreak Furry Fandom 1,845,360 2,101 - 170 - 10 - 33 - 13 653 2023-09-30 14:14:20
2,391 Fireball 820,770 758 - 8 - 0 - 1 - 1 402 2023-09-30 14:12:33
188 Ra Variationen [1.2x] 1,324,420 853 - 1 - 1 - 0 - 3 855 2023-09-30 14:11:33
368 Ra Variationen [1.2x] 48,050 31 - 0 - 0 - 0 - 0 31 2023-09-30 14:10:44
9 F.F.R ~FINAL FRONTIER RESOLUTION~ [1.2x] [FC] 4,338,525 2,795 - 5 - 0 - 0 - 5 2,800 2023-09-30 14:09:27
401 High-Priestess [1.2x] 1,217,365 788 - 1 - 0 - 1 - 0 784 2023-09-30 14:06:51
463 High-Priestess [1.2x] 762,325 491 - 1 - 0 - 0 - 0 492 2023-09-30 14:05:46
22 High-Priestess [1.2x] [FC] 3,099,095 1,997 - 3 - 0 - 0 - 4 2,000 2023-09-30 14:04:50
66 44 Edit v2 [1.2x] 1,459,235 939 - 3 - 0 - 0 - 2 942 2023-09-30 14:02:30
9 44 Edit v2 [1.2x] 3,986,165 3,126 - 8 - 1 - 1 - 4 2,265 2023-09-30 14:01:01
78 44 Edit v2 [1.2x] 208,735 134 - 0 - 1 - 0 - 1 135 2023-09-30 13:57:49
73 44 Edit v2 [1.2x] 698,480 449 - 2 - 0 - 0 - 1 451 2023-09-30 13:57:23
130 Track title [1.2x] 2,419,830 2,170 - 23 - 1 - 3 - 6 1,221 2023-09-30 13:56:23
298 Track title [1.2x] 126,825 81 - 1 - 0 - 0 - 0 82 2023-09-30 13:54:38
32 Track title [1.2x] 4,922,815 4,495 - 44 - 5 - 5 - 13 2,440 2023-09-30 13:54:04
269 Gamma Stop Sending Me High Quality Rips [1.2x] 2,099,420 1,353 - 1 - 1 - 0 - 3 1,355 2023-09-30 13:50:07
342 Gamma Stop Sending Me High Quality Rips [1.2x] 1,059,345 688 - 1 - 0 - 1 - 1 681 2023-09-30 13:48:52
331 Gamma Stop Sending Me High Quality Rips [1.2x] 1,178,430 757 - 4 - 0 - 0 - 1 761 2023-09-30 13:48:05
211 F.F.R ~FINAL FRONTIER RESOLUTION~ [1.2x] 374,530 240 - 2 - 0 - 0 - 1 242 2023-09-30 13:47:13
163 F.F.R ~FINAL FRONTIER RESOLUTION~ [1.2x] 766,240 493 - 0 - 2 - 0 - 1 495 2023-09-30 13:46:46
121 Clockwork Dragon [1.2x] 2,312,450 1,493 - 7 - 1 - 2 - 3 1,490 2023-09-30 13:45:38
22 Clockwork Dragon [1.2x] 2,629,850 2,072 - 8 - 0 - 3 - 1 1,489 2023-09-30 13:44:14
288 Sinthasomphone [1.2x] 641,315 416 - 3 - 0 - 1 - 0 412 2023-09-30 13:42:26
356 Sinthasomphone [1.2x] 204,325 131 - 1 - 0 - 0 - 0 132 2023-09-30 13:41:45
93 MAXX Nintendo [1.2x] 1,552,310 1,134 - 15 - 3 - 2 - 3 925 2023-09-30 13:41:06
93 MAXX Nintendo [1.2x] 1,660,400 1,145 - 7 - 1 - 1 - 1 1,029 2023-09-30 13:40:05
24 MAXX Nintendo [1.2x] 2,352,450 1,713 - 13 - 1 - 1 - 1 1,407 2023-09-30 13:39:02
171 MAXX Nintendo [1.2x] 432,175 278 - 1 - 0 - 0 - 0 279 2023-09-30 13:37:34
116 brute force [1.2x] 2,491,295 1,908 - 4 - 3 - 1 - 3 1,441 2023-09-30 13:37:00
44 DsMaxInkd 455,150 292 - 2 - 0 - 0 - 0 294 2023-09-30 13:35:24
42 DsMaxInkd 579,425 373 - 1 - 0 - 0 - 0 374 2023-09-30 13:35:00
72 eXXXcaliborg.Error 2,673,960 1,722 - 3 - 1 - 0 - 1 1,726 2023-09-30 13:34:21
120 eXXXcaliborg.Error 1,152,650 742 - 2 - 0 - 0 - 0 744 2023-09-30 13:33:03
770 Hello (BPM) 2021 710,880 456 - 5 - 1 - 1 - 2 459 2023-09-30 13:32:26
40 Heterochromia Iridis [1.2x] [FC] 3,070,015 1,980 - 0 - 1 - 0 - 2 1,981 2023-09-30 13:30:56
1,897 Heterochromia Iridis [1.2x] 767,975 493 - 3 - 0 - 0 - 0 496 2023-09-30 13:29:11
21 Fushigi Usagi Milk Tei [1.2x] [FC] 2,769,300 1,785 - 2 - 0 - 0 - 0 1,787 2023-09-30 13:27:41
2,445 Fushigi Usagi Milk Tei [1.2x] 711,220 459 - 4 - 0 - 1 - 1 458 2023-09-30 13:25:38
134 Break The Silence [1.2x] 4,516,395 2,988 - 15 - 4 - 1 - 2 2,869 2023-09-30 13:24:47
35 Break The Silence [1.2x] [FC] 4,823,565 3,105 - 6 - 3 - 0 - 0 3,114 2023-09-30 13:22:02
3,207 where is my balls [1.2x] 143,855 92 - 1 - 0 - 0 - 1 93 2023-09-30 13:19:22
4,056 where is my balls [1.2x] 21,680 14 - 0 - 0 - 0 - 1 14 2023-09-30 13:19:05
3,217 where is my balls [1.2x] 140,755 90 - 1 - 0 - 0 - 1 91 2023-09-30 13:18:54
2,299 where is my balls [1.2x] 517,425 333 - 1 - 0 - 0 - 0 334 2023-09-30 13:18:35
4,621 Rave 7 [1.2x] 745,815 487 - 1 - 0 - 1 - 0 478 2023-09-30 13:17:46
5,854 Rave 7 [1.2x] 343,605 221 - 0 - 1 - 0 - 0 222 2023-09-30 13:17:14
6,196 Rave 7 [1.2x] 269,425 173 - 1 - 0 - 0 - 0 174 2023-09-30 13:16:58
168 Rave 7 [1.2x] 1,787,275 1,495 - 5 - 0 - 1 - 2 964 2023-09-30 13:15:04
52 sub/zero [1.2x] 4,660,005 3,004 - 3 - 0 - 0 - 1 3,007 2023-09-30 13:13:17
119 sub/zero [1.2x] 183,890 124 - 0 - 0 - 1 - 0 116 2023-09-30 13:10:31
29 sub/zero [1.2x] [FC] 4,695,885 3,024 - 6 - 1 - 0 - 1 3,031 2023-09-30 13:09:27
566 Shindeiru [1.2x] 6,200 4 - 0 - 0 - 0 - 0 4 2023-09-30 13:06:32
102 Illegal Trap 1,094,345 708 - 1 - 0 - 1 - 1 705 2023-09-30 13:06:04
94 Illegal Trap 1,809,850 1,166 - 2 - 0 - 0 - 0 1,168 2023-09-30 13:04:44
551 OWA Raged In Vegas (Fuck Bees) [1.2x] 2,774,125 1,784 - 7 - 0 - 0 - 0 1,791 2023-09-09 23:25:55
143 Mdrqnxtagon [1.2x] 1,257,220 808 - 3 - 1 - 0 - 3 812 2023-09-09 23:23:19
16 Mdrqnxtagon [1.2x] 2,183,030 1,942 - 2 - 0 - 2 - 0 1,115 2023-09-09 23:19:22
206 Mdrqnxtagon [1.2x] 122,695 85 - 1 - 0 - 1 - 1 76 2023-09-09 23:17:33
206 Mdrqnxtagon [1.2x] 134,575 86 - 1 - 0 - 0 - 0 87 2023-09-09 23:17:22
45 Super wild! Survival Zundoko-chan [1.7x] [FC] 2,691,630 1,727 - 10 - 2 - 0 - 4 1,739 2023-09-09 23:15:22
180 Red Soil Redux (Super Metroid) [1.7x] 12,400 8 - 0 - 0 - 0 - 0 8 2023-09-09 23:13:51
74 Super wild! Survival Zundoko-chan [1.7x] 2,134,385 1,449 - 11 - 2 - 2 - 4 1,335 2023-09-09 23:13:39
48 Super wild! Survival Zundoko-chan [1.7x] [FC] 2,689,615 1,718 - 21 - 0 - 0 - 3 1,739 2023-09-09 23:11:38
94 Super wild! Survival Zundoko-chan [1.7x] 241,250 154 - 2 - 0 - 0 - 0 156 2023-09-09 23:10:05
97 Super wild! Survival Zundoko-chan [1.7x] 4,630 3 - 0 - 0 - 0 - 1 3 2023-09-09 23:09:50
94 Super wild! Survival Zundoko-chan [1.7x] 225,565 151 - 3 - 0 - 1 - 0 142 2023-09-09 23:09:37
233 LWVIIX (Lawn Wake 69) 845,950 549 - 1 - 1 - 1 - 1 544 2023-09-09 23:08:31
204 LWVIIX (Lawn Wake 69) 1,155,215 743 - 2 - 1 - 0 - 2 746 2023-09-09 23:07:55
140 Neko Nadetai [1.2x] 1,026,015 754 - 13 - 0 - 4 - 1 609 2023-09-09 23:06:38
178 Neko Nadetai [1.2x] 340,540 299 - 10 - 0 - 2 - 2 174 2023-09-09 23:05:55
207 Neko Nadetai [1.2x] 68,415 58 - 3 - 0 - 1 - 0 36 2023-09-09 23:05:36
208 Fury [1.2x] 1,487,290 970 - 4 - 0 - 1 - 0 953 2023-09-09 23:05:22
377 Fury [1.2x] 272,505 175 - 1 - 0 - 0 - 1 176 2023-09-09 23:04:16
174 Fury [1.2x] 2,063,525 1,951 - 4 - 1 - 2 - 3 990 2023-09-09 23:03:11
68 Gamma Stop Sending Me High Quality Rips [1.2x] 4,132,235 3,606 - 26 - 1 - 7 - 5 2,144 2023-09-09 23:00:44
47 END OF SYSTEM [1.2x] 2,503,540 2,239 - 32 - 0 - 15 - 3 1,268 2023-09-09 22:57:21
77 END OF SYSTEM [1.2x] 6,200 4 - 0 - 0 - 0 - 0 4 2023-09-09 22:55:26
17 END OF SYSTEM [1.2x] 2,587,650 2,625 - 29 - 3 - 10 - 7 1,139 2023-09-09 22:54:51
40 44 Edit v2 [1.2x] 3,440,905 3,009 - 10 - 3 - 6 - 5 1,785 2023-09-09 22:51:47
76 44 Edit v2 [1.2x] 215,790 141 - 2 - 0 - 1 - 0 138 2023-09-09 22:48:50
66 44 Edit v2 [1.2x] 1,260,350 1,065 - 2 - 0 - 3 - 1 675 2023-09-09 22:48:24
168 Real Ultimate Power [1.2x] 315,305 203 - 1 - 0 - 2 - 0 204 2023-09-09 22:47:13
168 Real Ultimate Power [1.2x] 300,425 193 - 1 - 0 - 0 - 0 194 2023-09-09 22:46:54
170 Real Ultimate Power [1.2x] 63,530 41 - 0 - 0 - 0 - 1 41 2023-09-09 22:46:35
177 Real Ultimate Power [1.2x] 0 0 - 0 - 0 - 2 - 1 0 2023-09-09 22:46:26
19 Real Ultimate Power [1.2x] 2,268,610 2,052 - 6 - 0 - 2 - 1 1,139 2023-09-09 22:46:16
125 Real Ultimate Power [1.2x] 1,228,715 804 - 3 - 0 - 1 - 0 786 2023-09-09 22:44:31
91 MAXX Nintendo [1.2x] 1,499,320 1,139 - 9 - 1 - 2 - 2 871 2023-09-09 22:42:57
26 MAXX Nintendo [1.2x] 1,808,350 1,712 - 12 - 2 - 2 - 2 864 2023-09-09 22:42:03
21 VIS::CRACKED v2 [1.2x] 3,974,345 2,916 - 22 - 5 - 2 - 8 2,365 2023-09-09 22:39:56
21 VIS::CRACKED v2 [1.2x] 2,752,760 2,920 - 18 - 0 - 7 - 1 1,144 2023-09-09 22:36:38
281 Sinthasomphone [1.2x] 671,600 430 - 4 - 0 - 0 - 0 434 2023-09-09 22:34:01
296 Sinthasomphone [1.2x] 612,240 400 - 2 - 0 - 1 - 0 392 2023-09-09 22:33:20
40 Sinthasomphone [1.2x] 2,125,250 1,907 - 11 - 1 - 2 - 3 1,074 2023-09-09 22:32:41
21 We Own The Night [Oni] [1.4x] 3,317,890 2,503 - 2 - 0 - 1 - 0 1,941 2023-09-09 22:30:29
1,412 Serious Shit [1.3x] 917,915 777 - 3 - 0 - 4 - 1 491 2023-09-09 22:27:13
1,629 Serious Shit [1.3x] 538,570 497 - 3 - 1 - 2 - 2 265 2023-09-09 22:26:28
2,416 Serious Shit [1.3x] 25,285 14 - 2 - 1 - 0 - 1 17 2023-09-09 22:25:55
2,332 Serious Shit [1.3x] 77,675 46 - 5 - 0 - 0 - 0 51 2023-09-09 22:25:44
2,328 Serious Shit [1.3x] 82,995 48 - 7 - 0 - 1 - 1 55 2023-09-09 22:25:34
2,118 Serious Shit [1.3x] 261,220 179 - 4 - 0 - 1 - 1 162 2023-09-09 22:25:22
2,283 Serious Shit [1.3x] 124,140 77 - 4 - 0 - 1 - 0 81 2023-09-09 22:25:00
255 Serious Shit [1.3x] 2,380,265 2,284 - 24 - 1 - 5 - 2 1,119 2023-09-09 22:24:32
682 Dysnomia [1.4x] 783,120 507 - 8 - 0 - 3 - 0 503 2023-09-09 22:22:28
286 Q.E. [1.4x] 519,465 408 - 5 - 0 - 1 - 0 294 2023-09-09 22:21:38
329 Q.E. [1.4x] 218,275 140 - 1 - 0 - 0 - 0 141 2023-09-09 22:21:06
153 Forgotten [1.4x] 2,324,100 2,170 - 10 - 2 - 4 - 1 1,129 2023-09-09 22:19:51
548 Forgotten [1.4x] 243,970 166 - 0 - 0 - 1 - 1 153 2023-09-09 22:18:05
46 Paradizm [1.4x] 113,490 75 - 2 - 0 - 1 - 0 72 2023-09-09 22:17:43
41 Hopeful Frontier!!! [1.4x] 2,482,700 1,813 - 36 - 0 - 1 - 2 1,476 2023-09-09 22:17:23
88 Hopeful Frontier!!! [1.4x] 77,535 50 - 1 - 0 - 4 - 0 51 2023-09-09 22:15:53
85 Hopeful Frontier!!! [1.4x] 323,125 206 - 3 - 0 - 0 - 0 209 2023-09-09 22:15:45
88 Hopeful Frontier!!! [1.4x] 71,335 46 - 1 - 0 - 4 - 0 47 2023-09-09 22:15:30
52 Hopeful Frontier!!! [1.4x] 2,437,130 1,775 - 69 - 5 - 1 - 3 1,442 2023-09-09 22:15:09
45 innocent revolver [1.4x] 1,996,190 1,815 - 25 - 1 - 3 - 3 992 2023-09-09 22:13:14
50 innocent revolver [1.4x] 1,465,195 1,744 - 90 - 1 - 9 - 1 484 2023-09-09 22:10:49
32 DsMaxInkd 921,915 594 - 1 - 0 - 0 - 3 595 2023-09-02 17:55:55
35 DsMaxInkd 428,390 351 - 6 - 0 - 1 - 0 234 2023-09-02 17:54:09
123 F.F.R ~FINAL FRONTIER RESOLUTION~ [1.2x] 1,277,080 819 - 6 - 0 - 0 - 1 825 2023-09-02 17:52:59
163 F.F.R ~FINAL FRONTIER RESOLUTION~ [1.2x] 655,185 429 - 3 - 0 - 5 - 2 420 2023-09-02 17:52:02
13 Real Ultimate Power [1.2x] 2,281,280 2,058 - 0 - 0 - 2 - 0 1,150 2023-09-02 17:49:41
205 LWVIIX (Lawn Wake 69) 1,111,540 714 - 3 - 1 - 0 - 2 718 2023-09-02 17:47:14
355 Extratone Firestorm 1,817,875 1,172 - 1 - 0 - 0 - 0 1,173 2023-09-02 17:45:56
498 Extratone Firestorm 880,125 567 - 1 - 0 - 0 - 0 568 2023-09-02 17:44:55
827 Extratone Firestorm 60,155 38 - 1 - 0 - 0 - 1 39 2023-09-02 17:44:25
130 Death Piano [FC] 3,797,940 2,439 - 13 - 1 - 0 - 7 2,453 2023-09-02 17:42:59
3 Blue Streaks of Happiness 6,332,235 5,778 - 8 - 3 - 3 - 5 3,153 2023-09-02 17:38:51
213 Heartbreak Furry Fandom [0.8x] 2,708,670 2,527 - 12 - 4 - 2 - 4 1,316 2023-09-02 17:33:10
7 POWA OF DA WILDANES [1.1x] 4,188,865 4,145 - 6 - 3 - 2 - 4 1,908 2023-09-02 17:28:07
1,228 Crystal Chamber Combustion (bike) 205,845 161 - 19 - 0 - 3 - 0 113 2023-09-02 17:24:33
1,209 Crystal Chamber Combustion (bike) 286,295 176 - 10 - 1 - 1 - 0 187 2023-09-02 17:24:19
2 Bolt Thrower In A Chinese Restaurant [PB] 4,749,735 3,261 - 3 - 0 - 2 - 1 2,956 2023-09-02 17:22:59
6 Bolt Thrower In A Chinese Restaurant 3,472,455 3,256 - 6 - 1 - 3 - 6 1,681 2023-09-02 17:19:16
798 Bolt Thrower In A Chinese Restaurant 206,930 132 - 1 - 1 - 0 - 0 134 2023-09-02 17:16:08
39 Mdrqnxtagon [1.2x] 2,695,635 1,928 - 11 - 4 - 3 - 4 1,633 2023-09-02 17:15:08
210 Mdrqnxtagon [1.2x] 27,625 17 - 1 - 0 - 0 - 0 18 2023-09-02 17:13:19
142 Mdrqnxtagon [1.2x] 1,155,655 808 - 2 - 1 - 1 - 2 711 2023-09-02 17:13:12
81 99.9 (Eurobeat Remix) [1.2x] 1,861,345 1,206 - 5 - 0 - 1 - 1 1,197 2023-09-02 17:12:00
112 99.9 (Eurobeat Remix) [1.2x] 83,425 53 - 1 - 0 - 0 - 0 54 2023-09-02 17:10:47
41 VIS::CRACKED [1.2x] [FC] 3,950,355 2,543 - 6 - 1 - 0 - 0 2,550 2023-09-02 17:10:14
23 UR+ MusicEater LV99 [1.2x] 4,353,490 3,014 - 4 - 0 - 1 - 0 2,695 2023-09-02 17:06:37
13 O Wings that Embrace Senju Banmei [1.2x] 2,479,320 1,822 - 2 - 0 - 1 - 1 1,477 2023-09-02 17:02:41
39 Mdrqnxtagon [1.2x] 2,735,305 1,927 - 12 - 1 - 6 - 2 1,674 2023-09-02 16:59:40
113 sub/zero 185,105 121 - 1 - 0 - 12 - 0 122 2023-09-02 16:57:35
115 sub/zero 63,045 40 - 5 - 0 - 1 - 1 40 2023-09-02 16:57:04
100 Clockwork Dragon [1.2x] 1,525,650 1,833 - 16 - 0 - 6 - 2 515 2023-09-02 16:56:09
55 Endymion [1.2x] 2,599,780 1,674 - 4 - 0 - 0 - 1 1,678 2023-09-01 19:39:02
202 Neko Nadetai [1.2x] 86,720 60 - 6 - 0 - 3 - 0 53 2023-09-01 19:37:32
199 Neko Nadetai [1.2x] 91,145 63 - 10 - 1 - 1 - 0 54 2023-09-01 19:37:24
204 Neko Nadetai [1.2x] 68,815 55 - 10 - 1 - 4 - 0 37 2023-09-01 19:37:18
215 Neko Nadetai [1.2x] 32,505 26 - 3 - 0 - 2 - 0 18 2023-09-01 19:37:10
43 POWA OF DA WILDANES [1.1x] 1,803,130 1,174 - 6 - 2 - 1 - 1 1,156 2023-09-01 19:36:23
11 POWA OF DA WILDANES [1.1x] 4,119,755 4,119 - 30 - 1 - 6 - 7 1,848 2023-09-01 19:34:52
51 END OF SYSTEM [1.2x] 2,091,175 1,515 - 26 - 1 - 4 - 2 1,252 2023-09-01 19:30:36
32 Braindead [1.2x] 2,430,260 1,574 - 8 - 0 - 2 - 1 1,563 2023-09-01 19:28:09
375 J-CORE SLi//CER Technique [1.2x] 791,260 509 - 1 - 1 - 0 - 1 511 2023-09-01 19:26:14
564 J-CORE SLi//CER Technique [1.2x] 47,775 30 - 1 - 0 - 0 - 0 31 2023-09-01 19:25:36
33 J-CORE SLi//CER Technique [1.2x] 2,180,695 2,317 - 1 - 0 - 3 - 0 907 2023-09-01 19:24:31
82 do i smile? [1.2x] [FC] 3,271,655 2,105 - 7 - 0 - 0 - 1 2,112 2023-09-01 19:19:14
125 Comatose State [1.2x] 1,630,545 1,068 - 9 - 0 - 1 - 1 1,041 2023-09-01 19:15:28
174 Comatose State [1.2x] 10,830 7 - 0 - 0 - 0 - 1 7 2023-09-01 19:14:17
464 Break The Silence [1.2x] 554,075 355 - 3 - 0 - 0 - 0 358 2023-09-01 19:13:53
77 Break The Silence [1.2x] 3,919,655 3,083 - 6 - 1 - 2 - 4 2,223 2023-09-01 19:11:58
1,116 Hello (BPM) 2021 286,845 178 - 8 - 1 - 1 - 0 187 2023-08-31 22:08:32
1,112 Hello (BPM) 2021 287,615 180 - 7 - 0 - 1 - 0 187 2023-08-31 22:08:09
861 Hello (BPM) 2021 570,575 364 - 5 - 0 - 0 - 0 369 2023-08-31 22:07:47
85 F.F.R ~FINAL FRONTIER RESOLUTION~ [1.2x] 2,213,430 1,768 - 6 - 0 - 2 - 0 1,240 2023-08-31 22:06:57
145 F.F.R ~FINAL FRONTIER RESOLUTION~ [1.2x] 857,495 560 - 3 - 0 - 1 - 1 549 2023-08-31 22:05:22
88 MAXX Nintendo [1.2x] 1,454,195 1,134 - 15 - 2 - 12 - 1 830 2023-08-31 22:03:59
24 Mdrqnxtagon [1.2x] 2,749,925 1,936 - 9 - 0 - 1 - 2 1,683 2023-08-31 22:02:23
41 Blue Streaks of Happiness 535,510 344 - 1 - 1 - 0 - 1 346 2023-08-31 22:00:24
179 LWVIIX (Lawn Wake 69) 1,172,125 1,002 - 5 - 0 - 1 - 2 620 2023-08-31 21:59:38
247 LWVIIX (Lawn Wake 69) 712,705 459 - 1 - 0 - 0 - 1 460 2023-08-31 21:58:47
5 LWVIIX (Lawn Wake 69) 2,934,425 2,367 - 7 - 0 - 1 - 2 1,631 2023-08-31 21:58:06
179 LWVIIX (Lawn Wake 69) 1,557,825 1,005 - 1 - 2 - 1 - 0 1,005 2023-08-31 21:55:52
179 LWVIIX (Lawn Wake 69) 1,567,515 1,009 - 2 - 1 - 0 - 2 1,012 2023-08-31 21:54:52
249 LWVIIX (Lawn Wake 69) 691,665 454 - 1 - 0 - 1 - 0 442 2023-08-31 21:54:00
335 Bolt Thrower In A Chinese Restaurant 2,119,580 1,363 - 3 - 3 - 0 - 3 1,369 2023-08-31 21:53:18
2 Bolt Thrower In A Chinese Restaurant [FC] [PB] 5,059,980 3,258 - 8 - 0 - 0 - 6 3,266 2023-08-31 21:51:28
831 Bolt Thrower In A Chinese Restaurant 151,970 97 - 2 - 0 - 3 - 0 99 2023-08-31 21:48:19
45 VIS::CRACKED v2 [1.2x] 1,597,840 1,028 - 11 - 1 - 2 - 1 1,030 2023-08-31 21:47:15
1,923 Doppelganger [1.4x] 365,250 234 - 2 - 0 - 0 - 0 236 2023-08-31 21:46:02
65 Shuu no Hazama (Rainshower) [1.4x] 2,188,855 2,255 - 7 - 0 - 4 - 4 948 2023-08-31 21:45:28
68 Comatose State [1.2x] 1,990,285 1,732 - 31 - 2 - 3 - 1 1,030 2023-08-27 11:26:39
67 Illegal Trap [1.2x] 1,598,710 1,459 - 23 - 1 - 10 - 1 793 2023-08-27 11:23:41
106 Illegal Trap [1.2x] 3,410 3 - 0 - 0 - 4 - 0 3 2023-08-27 11:22:14
794 Tachyon Beam Cannon 191,925 123 - 1 - 0 - 0 - 0 124 2023-08-24 20:47:28
30 DsMaxInkd 477,290 311 - 2 - 0 - 1 - 0 306 2023-08-24 20:42:58
31 Blue Streaks of Happiness 1,556,335 1,093 - 3 - 0 - 2 - 1 955 2023-08-24 20:42:26
39 Blue Streaks of Happiness 518,480 333 - 1 - 1 - 0 - 0 335 2023-08-24 20:41:03
35 DsMaxInkd 331,150 212 - 2 - 0 - 0 - 0 214 2023-08-24 20:36:56
35 DsMaxInkd 334,250 214 - 2 - 0 - 0 - 0 216 2023-08-24 20:36:41
30 DsMaxInkd 546,600 351 - 2 - 0 - 0 - 0 353 2023-08-24 20:36:22
30 DsMaxInkd 459,800 295 - 2 - 0 - 0 - 0 297 2023-08-24 20:35:56
27 DsMaxInkd 1,915,470 1,236 - 0 - 0 - 1 - 1 1,236 2023-08-24 20:32:07
34 DsMaxInkd 411,750 264 - 2 - 0 - 0 - 0 266 2023-08-24 20:30:51
30 DsMaxInkd 467,550 300 - 2 - 0 - 0 - 0 302 2023-08-24 20:30:34
30 DsMaxInkd 475,540 307 - 0 - 0 - 1 - 0 307 2023-08-24 20:30:14
26 DsMaxInkd 2,355,430 1,518 - 2 - 0 - 0 - 1 1,520 2023-08-24 20:29:45
8 DsMaxInkd [1.1x] 3,062,765 3,965 - 27 - 8 - 15 - 10 879 2023-08-24 20:27:56
37 POWA OF DA WILDANES [1.1x] 2,830,195 2,748 - 10 - 1 - 3 - 4 1,317 2023-08-24 20:24:06
9 POWA OF DA WILDANES [1.1x] 4,049,330 4,127 - 21 - 1 - 7 - 9 1,776 2023-08-24 20:21:25
45 POWA OF DA WILDANES [1.1x] 1,003,525 651 - 3 - 0 - 1 - 2 645 2023-08-24 20:16:57
39 POWA OF DA WILDANES [1.1x] 2,287,415 1,928 - 5 - 2 - 11 - 3 1,229 2023-08-24 20:16:06
42 POWA OF DA WILDANES [1.1x] 1,517,140 979 - 0 - 0 - 1 - 0 979 2023-08-24 20:14:25
30 DsMaxInkd 470,890 304 - 0 - 0 - 1 - 0 304 2023-08-24 20:12:56
30 DsMaxInkd 487,940 315 - 0 - 0 - 1 - 0 315 2023-08-24 20:12:34
35 DsMaxInkd 332,700 213 - 2 - 0 - 0 - 0 215 2023-08-24 20:12:14
30 DsMaxInkd 493,865 318 - 1 - 0 - 1 - 0 319 2023-08-24 20:11:59
30 DsMaxInkd 487,700 313 - 2 - 0 - 0 - 0 315 2023-08-24 20:11:35
30 DsMaxInkd 463,155 298 - 1 - 0 - 0 - 1 299 2023-08-24 20:11:13
28 DsMaxInkd 1,262,665 814 - 1 - 0 - 1 - 0 815 2023-08-24 20:10:46
30 DsMaxInkd 470,650 302 - 2 - 0 - 0 - 0 304 2023-08-24 20:09:57
30 DsMaxInkd 469,100 301 - 2 - 0 - 0 - 0 303 2023-08-24 20:09:29
24 DsMaxInkd 3,713,250 2,394 - 2 - 0 - 0 - 0 2,396 2023-08-24 20:08:47
30 DsMaxInkd 463,155 298 - 1 - 0 - 0 - 1 299 2023-08-24 20:06:39
24 DsMaxInkd 3,911,905 2,523 - 1 - 0 - 0 - 1 2,524 2023-08-24 20:04:51
28 DsMaxInkd 1,330,900 857 - 2 - 0 - 0 - 0 859 2023-08-24 20:02:05
30 DsMaxInkd 470,650 302 - 2 - 0 - 0 - 0 304 2023-08-24 20:01:13
30 DsMaxInkd 473,990 306 - 0 - 0 - 1 - 0 306 2023-08-24 20:00:54
30 DsMaxInkd 475,540 307 - 0 - 0 - 1 - 0 307 2023-08-24 20:00:33
29 DsMaxInkd 842,650 542 - 2 - 0 - 0 - 0 544 2023-08-24 20:00:13
24 DsMaxInkd 3,562,865 2,298 - 1 - 0 - 1 - 0 2,299 2023-08-24 19:58:36
30 DsMaxInkd 474,540 307 - 0 - 0 - 1 - 0 306 2023-08-24 19:56:33
26 DsMaxInkd 3,234,300 2,085 - 2 - 0 - 0 - 0 2,087 2023-08-24 19:53:48
30 DsMaxInkd 473,715 305 - 1 - 0 - 1 - 0 306 2023-08-24 19:51:53
30 DsMaxInkd 487,940 315 - 0 - 0 - 1 - 0 315 2023-08-24 19:51:34
30 DsMaxInkd 494,140 319 - 0 - 0 - 1 - 0 319 2023-08-24 19:51:14
26 DsMaxInkd 2,529,105 1,631 - 0 - 1 - 0 - 0 1,632 2023-08-24 19:49:37
30 DsMaxInkd 555,935 358 - 0 - 1 - 0 - 1 359 2023-08-24 19:48:06
30 DsMaxInkd 554,625 357 - 1 - 0 - 0 - 0 358 2023-08-24 19:47:43
26 DsMaxInkd 3,483,990 2,245 - 3 - 1 - 2 - 1 2,249 2023-08-24 19:46:28
27 DsMaxInkd 1,858,155 1,198 - 1 - 0 - 0 - 1 1,199 2023-08-24 19:44:21
3 DsMaxInkd 5,232,800 4,012 - 2 - 0 - 1 - 2 3,026 2023-08-24 19:42:33
36 DsMaxInkd 930 1 - 0 - 0 - 2 - 0 1 2023-08-24 19:39:06
35 DsMaxInkd 351,575 226 - 1 - 0 - 0 - 0 227 2023-08-24 19:38:59
29 DsMaxInkd 855,305 551 - 1 - 0 - 0 - 1 552 2023-08-24 19:38:40
30 DsMaxInkd 502,665 322 - 2 - 1 - 0 - 2 325 2023-08-24 19:38:06
27 DsMaxInkd 1,513,800 975 - 2 - 0 - 0 - 0 977 2023-08-24 19:34:27
30 DsMaxInkd 466,765 355 - 3 - 0 - 1 - 0 271 2023-08-24 19:33:30
27 DsMaxInkd 1,974,150 1,272 - 2 - 0 - 0 - 0 1,274 2023-08-24 19:33:00
30 DsMaxInkd 503,140 359 - 0 - 0 - 1 - 0 306 2023-08-24 19:31:48
30 DsMaxInkd 498,595 355 - 1 - 0 - 3 - 0 304 2023-08-24 19:31:26
36 DsMaxInkd 144,910 92 - 1 - 1 - 0 - 1 94 2023-08-24 19:30:59
30 DsMaxInkd 514,490 356 - 0 - 0 - 1 - 0 319 2023-08-24 19:30:51
30 DsMaxInkd 501,765 355 - 3 - 0 - 1 - 0 306 2023-08-24 19:30:29
30 DsMaxInkd 515,315 357 - 1 - 0 - 1 - 0 319 2023-08-24 19:30:07
28 DsMaxInkd 1,219,570 798 - 0 - 0 - 1 - 1 781 2023-08-24 19:29:42
30 DsMaxInkd 494,790 341 - 2 - 0 - 1 - 0 307 2023-08-24 19:28:51
35 DsMaxInkd 322,295 216 - 3 - 0 - 1 - 1 203 2023-08-24 19:28:27
30 DsMaxInkd 508,540 366 - 2 - 0 - 1 - 0 307 2023-08-24 19:27:44
36 DsMaxInkd [1.2x] 27,900 18 - 0 - 0 - 0 - 0 18 2023-08-24 19:27:20
14 Real Ultimate Power [1.2x] [FC] 3,191,330 2,054 - 6 - 0 - 0 - 1 2,060 2023-08-24 19:26:40
164 Real Ultimate Power [1.2x] 176,700 114 - 0 - 0 - 0 - 0 114 2023-08-24 19:22:33
166 Real Ultimate Power [1.2x] 40,300 26 - 0 - 0 - 0 - 0 26 2023-08-24 19:22:16
43 Real Ultimate Power [1.2x] 1,762,125 2,027 - 25 - 0 - 8 - 6 643 2023-08-24 19:21:35
60 Happy Arnold=) [1.2x] 2,535,160 2,295 - 9 - 1 - 2 - 0 1,271 2023-08-24 19:19:21
901 Happy Arnold=) [1.2x] 87,980 61 - 2 - 0 - 10 - 1 57 2023-08-24 19:16:56
78 Happy Arnold=) [1.2x] 2,089,505 2,286 - 15 - 0 - 6 - 3 830 2023-08-24 19:16:04
888 Happy Arnold=) [1.2x] 106,400 67 - 2 - 0 - 0 - 0 69 2023-08-24 19:13:34
44 POWA OF DA WILDANES [1.1x] 950,865 618 - 1 - 0 - 1 - 0 611 2023-08-22 18:05:10
62 Endymion [1.2x] 1,972,855 1,272 - 1 - 0 - 0 - 1 1,273 2023-08-22 18:03:49
88 Endymion [1.2x] 457,940 315 - 0 - 0 - 1 - 0 285 2023-08-22 18:02:40
86 Offset Packed [1.2x] 1,750,005 1,671 - 8 - 1 - 4 - 3 830 2023-08-22 18:02:14
108 Offset Packed [1.2x] 1,053,575 686 - 2 - 1 - 1 - 1 676 2023-08-22 18:00:38
179 Offset Packed [1.2x] 46,225 29 - 1 - 0 - 0 - 0 30 2023-08-22 17:59:54
32 Blue Streaks of Happiness 1,201,120 778 - 2 - 0 - 1 - 1 773 2023-08-22 17:59:01
30 DsMaxInkd 482,965 320 - 1 - 0 - 1 - 0 307 2023-08-22 17:57:55
30 DsMaxInkd 554,625 357 - 1 - 0 - 0 - 0 358 2023-08-22 17:57:35
24 DsMaxInkd 3,568,480 2,311 - 2 - 0 - 10 - 1 2,300 2023-08-22 17:56:26
3 DsMaxInkd [FC] 6,222,110 4,011 - 4 - 0 - 0 - 2 4,015 2023-08-22 17:53:13
34 DsMaxInkd 274,330 177 - 0 - 0 - 0 - 1 177 2023-08-22 17:49:43
33 DsMaxInkd 428,800 275 - 2 - 0 - 0 - 0 277 2023-08-22 17:49:22
30 DsMaxInkd 505,445 342 - 1 - 0 - 3 - 0 318 2023-08-22 17:49:04
30 DsMaxInkd 529,145 344 - 1 - 0 - 1 - 1 340 2023-08-22 17:48:39
34 DsMaxInkd 337,415 218 - 3 - 0 - 1 - 0 217 2023-08-22 17:48:10
30 DsMaxInkd 554,075 355 - 3 - 0 - 0 - 0 358 2023-08-22 17:47:55
30 DsMaxInkd 495,475 321 - 1 - 0 - 1 - 2 319 2023-08-22 17:47:33
26 DsMaxInkd 3,041,605 1,960 - 2 - 1 - 0 - 0 1,963 2023-08-22 17:45:58
282 LWVIIX (Lawn Wake 69) 628,510 404 - 1 - 1 - 0 - 1 406 2023-08-22 17:44:05
7 Hello (BPM) 2021 [FC] 4,266,030 2,749 - 4 - 0 - 0 - 1 2,753 2023-08-22 17:42:49
121 goTe EX 2,096,555 1,346 - 4 - 5 - 0 - 6 1,355 2023-08-22 17:39:37
26 DsMaxInkd 3,362,655 2,167 - 3 - 0 - 0 - 1 2,170 2023-08-22 17:37:02
4 DsMaxInkd 5,936,605 4,004 - 6 - 1 - 4 - 3 3,734 2023-08-22 17:34:28
1 dreamless wanderer [AAA] [FC] [PB] 5,708,650 3,683 - 0 - 0 - 0 - 0 3,683 2023-08-22 17:26:27
14 dreamless wanderer 3,701,305 3,611 - 9 - 8 - 2 - 2 1,713 2023-08-22 17:22:00
30 DsMaxInkd 503,305 343 - 1 - 0 - 2 - 0 315 2023-08-22 17:18:40
30 DsMaxInkd 445,485 305 - 5 - 0 - 2 - 1 277 2023-08-22 17:18:18
30 DsMaxInkd 508,130 384 - 2 - 0 - 2 - 0 297 2023-08-22 17:17:58
35 DsMaxInkd [1.2x] 0 0 - 0 - 0 - 3 - 1 0 2023-08-22 17:17:32
97 Jamais Vu [1.2x] [FC] 3,087,205 1,986 - 7 - 0 - 0 - 1 1,993 2023-08-22 17:16:17
13 sub/zero [1.2x] [FC] 4,697,755 3,030 - 1 - 0 - 0 - 1 3,031 2023-08-22 17:12:44
27 Illegal Trap [1.2x] 3,295,865 2,305 - 5 - 2 - 1 - 3 2,027 2023-08-22 17:09:04
30 Illegal Trap [1.2x] 3,088,210 2,303 - 8 - 0 - 2 - 1 1,820 2023-08-22 17:06:14
29 DsMaxInkd 506,460 342 - 0 - 0 - 2 - 1 319 2023-08-21 13:44:07
29 DsMaxInkd 515,040 357 - 0 - 0 - 1 - 0 319 2023-08-21 13:43:44
29 DsMaxInkd 571,675 368 - 1 - 0 - 0 - 0 369 2023-08-21 13:43:19
32 DsMaxInkd 150,055 96 - 1 - 0 - 0 - 1 97 2023-08-21 13:42:57
32 DsMaxInkd 366,140 239 - 0 - 0 - 1 - 0 235 2023-08-21 13:42:45
692 Bolt Thrower In A Chinese Restaurant 485,250 315 - 1 - 1 - 1 - 1 312 2023-08-21 13:42:25
790 Bolt Thrower In A Chinese Restaurant 222,100 140 - 4 - 0 - 0 - 0 144 2023-08-21 13:41:55
847 Bolt Thrower In A Chinese Restaurant 117,150 76 - 2 - 2 - 1 - 0 75 2023-08-21 13:41:42
845 Bolt Thrower In A Chinese Restaurant 123,725 79 - 1 - 0 - 0 - 0 80 2023-08-21 13:41:29
847 Bolt Thrower In A Chinese Restaurant 123,175 77 - 3 - 0 - 0 - 0 80 2023-08-21 13:41:19
779 Bolt Thrower In A Chinese Restaurant 260,380 168 - 0 - 0 - 0 - 1 168 2023-08-21 13:41:02
798 Bolt Thrower In A Chinese Restaurant 202,190 130 - 2 - 0 - 6 - 0 132 2023-08-21 13:40:48
29 Blue Streaks of Happiness 1,814,295 1,177 - 1 - 0 - 1 - 1 1,167 2023-08-21 13:37:32
29 DsMaxInkd 529,790 341 - 2 - 0 - 1 - 0 342 2023-08-21 13:35:35
29 DsMaxInkd 535,490 356 - 0 - 0 - 1 - 0 340 2023-08-21 13:35:13
24 DsMaxInkd 2,278,205 1,469 - 1 - 0 - 0 - 1 1,470 2023-08-21 13:34:25
2 DsMaxInkd [FC] [PB] 6,222,680 4,013 - 2 - 0 - 0 - 1 4,015 2023-08-21 13:30:44
31 DsMaxInkd 39,370 26 - 0 - 0 - 3 - 0 26 2023-08-21 13:27:14
4 DsMaxInkd 4,655,195 4,003 - 9 - 0 - 3 - 0 2,452 2023-08-21 13:26:34
28 DsMaxInkd 518,185 332 - 2 - 1 - 0 - 1 335 2023-08-21 13:23:01
27 DsMaxInkd 969,290 632 - 0 - 0 - 1 - 0 622 2023-08-21 13:22:38
31 DsMaxInkd 4,375 2 - 1 - 0 - 0 - 0 3 2023-08-21 13:22:00
27 DsMaxInkd 929,700 610 - 2 - 0 - 1 - 2 594 2023-08-21 13:21:56
28 DsMaxInkd 534,180 343 - 2 - 0 - 0 - 1 345 2023-08-21 13:21:20
6 dreamless wanderer 3,731,920 3,666 - 13 - 1 - 3 - 4 1,713 2023-08-21 13:20:19
38 dreamless wanderer 1,407,900 1,429 - 4 - 2 - 4 - 1 622 2023-08-21 13:16:49
52 sub/zero [1.2x] 4,659,415 3,002 - 5 - 0 - 0 - 3 3,007 2023-08-21 13:14:13
112 sub/zero [1.2x] 83,045 53 - 3 - 0 - 3 - 0 54 2023-08-21 13:11:29
155 Rave 7 [1.2x] 2,029,590 1,496 - 4 - 0 - 1 - 0 1,206 2023-08-21 13:10:06
28 Illegal Trap [1.2x] 2,188,195 2,305 - 5 - 0 - 3 - 0 920 2023-08-21 13:07:26
47 Illegal Trap [1.2x] 1,975,950 2,270 - 35 - 1 - 7 - 3 720 2023-08-21 13:04:22
98 Illegal Trap [1.2x] 0 0 - 0 - 0 - 9 - 1 0 2023-08-21 13:02:17
28 DsMaxInkd 308,340 202 - 2 - 0 - 1 - 0 197 2023-08-20 14:12:26
25 DsMaxInkd 534,870 356 - 0 - 0 - 3 - 0 340 2023-08-20 14:12:08
28 DsMaxInkd 335,635 220 - 1 - 0 - 2 - 1 215 2023-08-20 14:11:46
25 DsMaxInkd 519,955 333 - 3 - 0 - 0 - 1 336 2023-08-20 14:11:31
436 LWVIIX (Lawn Wake 69) 15,205 9 - 1 - 0 - 0 - 1 10 2023-08-20 14:11:07
246 LWVIIX (Lawn Wake 69) 711,145 455 - 3 - 2 - 0 - 2 460 2023-08-20 14:11:01
568 Hello (BPM) 2021 746,835 677 - 15 - 0 - 2 - 1 371 2023-08-20 14:10:09
1,198 Hello (BPM) 2021 20,130 13 - 0 - 0 - 0 - 1 13 2023-08-20 14:09:25
11 Crystal Chamber Combustion (bike) 3,300,835 2,258 - 7 - 0 - 3 - 3 2,058 2023-08-20 14:09:03
1,208 Crystal Chamber Combustion (bike) 243,735 175 - 6 - 3 - 1 - 1 146 2023-08-20 14:07:25
1,399 Crystal Chamber Combustion (bike) 122,585 80 - 3 - 0 - 4 - 0 79 2023-08-20 14:07:08
3 DsMaxInkd 5,482,990 3,999 - 10 - 2 - 4 - 4 3,282 2023-08-20 14:06:50
3 DsMaxInkd 4,426,465 4,005 - 6 - 1 - 3 - 3 2,223 2023-08-20 14:01:54
25 DsMaxInkd 514,085 331 - 0 - 1 - 0 - 1 332 2023-08-20 13:58:04
23 DsMaxInkd 1,239,450 798 - 2 - 0 - 0 - 0 800 2023-08-20 13:57:28
28 DsMaxInkd 176,700 114 - 0 - 0 - 0 - 0 114 2023-08-20 13:56:21
25 DsMaxInkd 567,005 365 - 1 - 0 - 0 - 1 366 2023-08-20 13:56:10
22 DsMaxInkd 2,439,970 1,586 - 0 - 0 - 1 - 1 1,568 2023-08-20 13:55:38
24 Undici [1.1x] 3,794,725 3,313 - 20 - 3 - 3 - 8 1,968 2023-08-20 13:53:12
28 Blue Streaks of Happiness [1.1x] 1,814,720 1,163 - 7 - 3 - 0 - 1 1,173 2023-08-20 13:50:00
8 POWA OF DA WILDANES [1.1x] 4,136,735 4,137 - 13 - 2 - 4 - 3 1,859 2023-08-20 13:47:38
2,241 Fireball 823,280 829 - 12 - 0 - 3 - 2 365 2023-08-20 13:44:17
2,727 Fireball 509,250 569 - 8 - 2 - 3 - 4 195 2023-08-20 13:43:11
26 DsMaxInkd 428,440 285 - 0 - 0 - 1 - 0 272 2023-08-20 13:42:31
24 DsMaxInkd 774,450 498 - 2 - 0 - 0 - 0 500 2023-08-20 13:42:09
25 DsMaxInkd 494,460 320 - 4 - 0 - 2 - 1 318 2023-08-20 13:41:39
25 DsMaxInkd 502,140 359 - 0 - 0 - 1 - 0 305 2023-08-20 13:41:18
28 DsMaxInkd 363,975 234 - 1 - 0 - 0 - 0 235 2023-08-20 13:40:30
24 DsMaxInkd 844,125 548 - 1 - 0 - 5 - 0 544 2023-08-20 13:40:14
3 DsMaxInkd 5,498,640 4,007 - 5 - 1 - 2 - 1 3,294 2023-08-20 13:38:17
22 DsMaxInkd 2,982,990 1,924 - 4 - 0 - 1 - 0 1,924 2023-08-20 13:34:40
25 DsMaxInkd 500,605 319 - 4 - 1 - 0 - 0 324 2023-08-20 13:32:52
25 DsMaxInkd 571,455 368 - 0 - 1 - 0 - 0 369 2023-08-20 13:32:26
28 DsMaxInkd 344,895 232 - 2 - 1 - 1 - 0 217 2023-08-20 13:32:03
25 DsMaxInkd 484,440 325 - 0 - 0 - 1 - 0 306 2023-08-20 13:31:46
25 DsMaxInkd 504,790 362 - 0 - 0 - 1 - 0 306 2023-08-20 13:31:16
25 DsMaxInkd 499,290 352 - 0 - 0 - 1 - 0 306 2023-08-20 13:30:51
23 DsMaxInkd 1,216,980 784 - 0 - 2 - 1 - 1 786 2023-08-20 13:30:23
28 DsMaxInkd 365,285 235 - 0 - 1 - 0 - 1 236 2023-08-20 13:29:30
25 DsMaxInkd 536,370 354 - 0 - 0 - 1 - 1 342 2023-08-20 13:29:14
25 DsMaxInkd 479,765 317 - 0 - 1 - 2 - 1 306 2023-08-20 13:28:43
25 DsMaxInkd 498,190 350 - 0 - 0 - 1 - 0 306 2023-08-20 13:28:22
2 DsMaxInkd [PB] 5,924,820 4,012 - 2 - 0 - 1 - 1 3,718 2023-08-20 13:26:41
28 DsMaxInkd 123,725 79 - 1 - 0 - 0 - 0 80 2023-08-20 13:23:04
3 DsMaxInkd [FC] 6,221,140 4,009 - 4 - 2 - 0 - 1 4,015 2023-08-20 13:22:22
3 DsMaxInkd 4,837,760 4,006 - 5 - 1 - 3 - 2 2,634 2023-08-20 13:15:59
28 DsMaxInkd 145,890 104 - 0 - 0 - 1 - 0 89 2023-08-20 13:12:31
4 DsMaxInkd 3,359,695 3,965 - 35 - 6 - 9 - 11 1,172 2023-08-20 13:11:46
55 sub/zero [1.2x] 3,594,670 2,994 - 12 - 0 - 1 - 1 1,945 2023-08-20 13:07:11
59 sub/zero [1.2x] 3,098,985 2,950 - 46 - 9 - 2 - 2 1,464 2023-08-20 13:03:31
112 sub/zero [1.2x] 47,900 29 - 3 - 1 - 3 - 0 32 2023-08-20 13:00:43
20 DsMaxInkd 496,740 331 - 0 - 0 - 1 - 0 315 2023-08-19 11:42:44
19 DsMaxInkd 1,846,120 1,199 - 0 - 0 - 1 - 1 1,187 2023-08-19 11:41:21
20 DsMaxInkd 502,740 331 - 0 - 0 - 1 - 0 321 2023-08-19 11:40:11
17 Mdrqnxtagon [1.2x] 2,751,025 1,940 - 5 - 0 - 1 - 2 1,683 2023-08-19 11:38:29
189 Mdrqnxtagon [1.2x] 272,515 181 - 1 - 0 - 1 - 0 173 2023-08-19 11:36:34
198 Mdrqnxtagon [1.2x] 115,240 81 - 0 - 0 - 1 - 0 71 2023-08-19 11:36:15
80 99.9 (Eurobeat Remix) [1.2x] 1,771,295 1,139 - 4 - 1 - 1 - 0 1,144 2023-08-19 11:32:17
100 99.9 (Eurobeat Remix) [1.2x] 456,460 293 - 1 - 1 - 0 - 1 295 2023-08-19 11:31:19
108 99.9 (Eurobeat Remix) [1.2x] 94,550 61 - 0 - 0 - 0 - 0 61 2023-08-19 11:30:52
18 Endymion [1.2x] 3,279,690 2,451 - 13 - 1 - 3 - 3 1,929 2023-08-19 11:27:08
100 Endymion [1.2x] 125,255 80 - 1 - 0 - 0 - 1 81 2023-08-19 11:25:16
102 Endymion [1.2x] 84,320 55 - 0 - 0 - 3 - 0 55 2023-08-19 11:25:08
36 POWA OF DA WILDANES [1.1x] 1,948,290 1,668 - 9 - 1 - 2 - 1 1,029 2023-08-18 13:50:54
48 END OF SYSTEM [1.2x] 1,782,615 1,818 - 24 - 1 - 6 - 4 778 2023-08-18 13:48:20
14 F.F.R ~FINAL FRONTIER RESOLUTION~ [1.2x] 3,067,910 2,785 - 10 - 0 - 5 - 2 1,535 2023-08-18 13:45:40
38 Neko Nadetai [1.2x] 1,649,110 1,896 - 15 - 3 - 6 - 6 604 2023-08-18 13:43:06
227 Isometry 743,880 475 - 6 - 0 - 0 - 1 481 2023-08-18 13:41:16
189 Mondo Brutale 612,615 388 - 8 - 1 - 0 - 2 397 2023-08-18 13:40:34
189 Mondo Brutale 464,160 390 - 3 - 3 - 1 - 1 249 2023-08-18 13:39:47
115 eXXXcaliborg.Error 1,130,655 727 - 3 - 0 - 0 - 1 730 2023-08-18 13:39:00
4 eXXXcaliborg.Error [FC] 3,975,925 2,561 - 5 - 0 - 0 - 0 2,566 2023-08-18 13:37:45
2 Bolt Thrower In A Chinese Restaurant [PB] 4,296,530 3,259 - 5 - 1 - 1 - 2 2,503 2023-08-18 13:34:48
3 Bolt Thrower In A Chinese Restaurant 4,542,450 3,259 - 5 - 1 - 1 - 6 2,749 2023-08-18 13:31:27
742 Bolt Thrower In A Chinese Restaurant 362,215 230 - 2 - 3 - 0 - 0 235 2023-08-18 13:28:18
245 LWVIIX (Lawn Wake 69) 693,130 465 - 0 - 0 - 2 - 0 438 2023-08-18 13:27:55
285 LWVIIX (Lawn Wake 69) 618,480 401 - 2 - 0 - 2 - 0 398 2023-08-18 13:27:25
22 LWVIIX (Lawn Wake 69) 2,892,885 2,312 - 9 - 2 - 4 - 3 1,620 2023-08-18 13:26:52
239 LWVIIX (Lawn Wake 69) 756,610 485 - 3 - 1 - 0 - 1 489 2023-08-18 13:24:44
4,681 Fireball 308,870 193 - 6 - 2 - 0 - 2 201 2023-08-18 13:24:04
1,976 Fireball 1,082,415 927 - 13 - 0 - 3 - 4 570 2023-08-18 13:23:40
123 goTe EX 1,476,480 950 - 12 - 2 - 1 - 6 951 2023-08-18 13:22:04
7 DsMaxInkd 5,333,010 3,458 - 4 - 0 - 3 - 3 3,431 2023-08-18 13:20:30
2 DsMaxInkd 5,102,720 4,008 - 6 - 0 - 1 - 1 2,897 2023-08-18 13:16:38
2 DsMaxInkd 5,633,270 4,008 - 3 - 1 - 3 - 4 3,429 2023-08-18 13:12:16
2 DsMaxInkd 5,232,820 4,007 - 6 - 0 - 2 - 3 3,028 2023-08-18 13:08:07
1 DsMaxInkd [FC] [PB] 6,221,815 4,010 - 5 - 0 - 0 - 3 4,015 2023-08-18 13:01:26
1 DsMaxInkd [FC] [PB] 6,221,155 4,010 - 2 - 3 - 0 - 3 4,015 2023-08-18 12:56:51
2 DsMaxInkd 5,498,505 4,006 - 7 - 0 - 2 - 5 3,294 2023-08-18 12:52:21
13 DsMaxInkd 457,700 338 - 4 - 0 - 4 - 3 272 2023-08-18 12:48:50
13 DsMaxInkd 484,635 312 - 0 - 1 - 0 - 1 313 2023-08-18 12:48:27
13 DsMaxInkd 514,195 355 - 1 - 0 - 1 - 1 319 2023-08-18 12:48:05
2 DsMaxInkd 3,500,055 3,986 - 19 - 2 - 8 - 5 1,305 2023-08-18 12:47:24
76 Akasha [1.4x] 2,331,120 2,275 - 9 - 1 - 2 - 2 1,078 2023-08-18 12:38:43
128 Akasha [1.4x] 2,467,700 2,257 - 24 - 2 - 4 - 6 1,221 2023-08-18 12:35:13
13 sub/zero [FC] 4,697,755 3,030 - 1 - 0 - 0 - 1 3,031 2023-08-18 12:31:55
4 DsMaxInkd 493,710 320 - 1 - 1 - 2 - 0 318 2023-08-18 00:46:52
4 DsMaxInkd 478,315 317 - 1 - 0 - 1 - 0 304 2023-08-18 00:46:30
4 DsMaxInkd 1,216,685 784 - 1 - 2 - 6 - 2 787 2023-08-18 00:46:03
2 DsMaxInkd 5,644,895 4,000 - 13 - 0 - 2 - 3 3,442 2023-08-18 00:45:01
4 DsMaxInkd 396,525 255 - 1 - 0 - 0 - 0 256 2023-08-18 00:41:30
4 DsMaxInkd 481,770 321 - 2 - 0 - 1 - 1 305 2023-08-18 00:41:05
4 DsMaxInkd 450,265 326 - 1 - 0 - 1 - 0 271 2023-08-18 00:40:44
4 DsMaxInkd 1,364,980 879 - 2 - 0 - 0 - 1 881 2023-08-18 00:39:58
4 DsMaxInkd 344,860 221 - 1 - 1 - 0 - 1 223 2023-08-18 00:39:05
1 DsMaxInkd [PB] 4,718,405 4,007 - 7 - 0 - 1 - 3 2,513 2023-08-18 00:37:31
2 DsMaxInkd 5,738,765 3,695 - 15 - 2 - 2 - 5 3,703 2023-08-18 00:33:46
4 DsMaxInkd 484,890 324 - 0 - 0 - 1 - 0 307 2023-08-18 00:30:27
4 DsMaxInkd 1,230,965 792 - 1 - 2 - 0 - 1 795 2023-08-18 00:30:05
4 DsMaxInkd 502,790 362 - 0 - 0 - 1 - 0 304 2023-08-18 00:29:04
4 DsMaxInkd 477,470 315 - 2 - 0 - 1 - 1 304 2023-08-18 00:28:41
4 DsMaxInkd 3,021,485 1,955 - 2 - 1 - 1 - 3 1,946 2023-08-18 00:28:10
4 DsMaxInkd 393,425 253 - 1 - 0 - 0 - 0 254 2023-08-18 00:26:20
2 DsMaxInkd 4,334,580 4,007 - 5 - 1 - 2 - 4 2,130 2023-08-18 00:25:36
4 DsMaxInkd 1,262,495 825 - 1 - 0 - 21 - 1 815 2023-08-18 00:21:32
2 DsMaxInkd 4,287,120 4,005 - 6 - 0 - 4 - 2 2,084 2023-08-18 00:20:05
4 DsMaxInkd 1,516,605 976 - 3 - 0 - 0 - 1 979 2023-08-18 00:16:23
2 DsMaxInkd 4,407,165 4,004 - 4 - 3 - 4 - 3 2,205 2023-08-18 00:14:47
3 DsMaxInkd 468,565 312 - 1 - 0 - 1 - 0 297 2023-08-18 00:11:18
3 DsMaxInkd 0 0 - 0 - 0 - 3 - 1 0 2023-08-18 00:10:58
1 DsMaxInkd [PB] 4,712,835 4,005 - 9 - 0 - 1 - 4 2,508 2023-08-18 00:09:55
1 DsMaxInkd [SR] 4,901,465 4,002 - 11 - 0 - 2 - 2 2,698 2023-08-18 00:05:47
7 END OF SYSTEM [FC] 4,132,525 2,664 - 1 - 2 - 0 - 3 2,667 2023-08-17 23:57:17
6 PEACE BREAKER [FC] 5,612,275 3,620 - 1 - 0 - 0 - 0 3,621 2023-08-17 23:53:45
45 Real Ultimate Power [1.2x] 1,886,595 2,021 - 27 - 4 - 8 - 6 770 2023-08-17 23:49:39
36 Real Ultimate Power [1.2x] 2,519,940 2,034 - 21 - 3 - 2 - 4 1,396 2023-08-17 23:47:09
178 Nisemono [Cut] [1.4x] 2,155,280 2,602 - 70 - 0 - 13 - 2 709 2023-08-17 23:44:12
182 Lawn Wake III [1.4x] 2,140,645 1,924 - 6 - 1 - 4 - 1 1,082 2023-08-17 23:41:27
183 Break [1.4x] 1,121,890 1,362 - 6 - 0 - 6 - 0 373 2023-08-17 23:38:05
325 Break [1.4x] 953,395 990 - 7 - 0 - 13 - 0 411 2023-08-17 23:36:43
1 Writing On The Walls (Final Sketch Remix) [1.4x] [AAA] [FC] 3,980,400 2,568 - 0 - 0 - 0 - 0 2,568 2023-08-17 23:34:34
259 Fury 881,675 568 - 1 - 0 - 0 - 0 569 2023-08-17 23:31:40
830 Staple on Smile 1,657,160 1,066 - 3 - 1 - 0 - 1 1,070 2023-08-17 23:30:05
1,724 Staple on Smile 97,100 61 - 2 - 0 - 0 - 0 63 2023-08-17 23:29:03
300 Mario-chi Survivor [Oni] 417,880 270 - 0 - 0 - 2 - 0 270 2023-08-17 23:28:44
397 Mario-chi Survivor [Oni] 30,415 19 - 1 - 0 - 1 - 0 20 2023-08-17 23:28:16
337 Mario-chi Survivor [Oni] 294,665 194 - 1 - 0 - 1 - 0 188 2023-08-17 23:28:04
5 O Wings that Embrace Senju Banmei [FC] [SR] 2,828,475 1,824 - 1 - 0 - 0 - 0 1,825 2023-08-17 23:26:45
1 Illegal Trap [AAA] [FC] 3,585,150 2,313 - 0 - 0 - 0 - 0 2,313 2023-08-17 23:22:58
22 Blue Streaks of Happiness 2,019,175 1,315 - 1 - 0 - 1 - 2 1,296 2023-08-17 13:27:49
199 Tachyon Beam Cannon [1.1x] 4,578,750 3,042 - 19 - 1 - 5 - 4 2,902 2023-08-17 13:25:49
25 Tachyon Beam Cannon [1.1x] 5,964,110 5,274 - 27 - 3 - 10 - 4 3,059 2023-08-17 13:22:26
708 Tachyon Beam Cannon [1.1x] 246,955 188 - 5 - 2 - 3 - 0 143 2023-08-17 13:18:30
935 Tachyon Beam Cannon [1.1x] 46,225 29 - 1 - 0 - 0 - 0 30 2023-08-17 13:18:20
735 Tachyon Beam Cannon [1.1x] 230,355 150 - 9 - 0 - 2 - 0 146 2023-08-17 13:18:15
69 eXXXcaliborg.Error [1.1x] 1,740,605 1,701 - 36 - 1 - 6 - 2 797 2023-08-17 13:18:03
8 POWA OF DA WILDANES [1.1x] 3,743,040 4,135 - 16 - 0 - 5 - 3 1,466 2023-08-17 13:15:08
96 goTe EX 3,321,130 2,306 - 40 - 2 - 4 - 2 2,043 2023-08-17 13:11:04
304 I'm A Fucking Idiot [1.2x] 1,562,560 1,150 - 5 - 1 - 1 - 3 929 2023-08-17 13:08:39
669 I'm A Fucking Idiot [1.2x] 251,825 160 - 3 - 0 - 0 - 0 163 2023-08-17 13:07:19
51 Endymion [1.2x] 2,485,990 1,610 - 2 - 2 - 23 - 2 1,607 2023-08-17 13:06:40
103 Endymion [1.2x] 15,500 10 - 0 - 0 - 0 - 0 10 2023-08-17 13:05:13
5 STRANGEPROGRAM v0 4,134,835 4,164 - 305 - 8 - 108 - 10 1,794 2023-08-17 13:04:32
32 POWA OF DA WILDANES [1.1x] 2,144,210 2,302 - 22 - 0 - 6 - 4 874 2023-08-17 13:00:08
33 POWA OF DA WILDANES [1.1x] 2,043,585 1,623 - 15 - 0 - 7 - 1 1,149 2023-08-17 12:57:52
9 POWA OF DA WILDANES [1.1x] 3,536,515 4,119 - 29 - 2 - 6 - 8 1,265 2023-08-17 12:55:53
55 sub/zero [1.2x] 2,874,275 2,990 - 8 - 5 - 2 - 4 1,228 2023-08-17 12:52:21
51 Tache [1.2x] 1,873,945 1,371 - 3 - 0 - 3 - 0 1,120 2023-08-17 12:49:23
33 VIS::CRACKED v2 [1.2x] 2,305,755 2,455 - 17 - 2 - 4 - 2 952 2023-08-16 13:19:08
21 sub/zero [1.2x] [FC] 4,697,185 3,028 - 3 - 0 - 0 - 2 3,031 2023-08-16 13:16:22
103 sub/zero [1.2x] 537,555 346 - 1 - 0 - 0 - 1 347 2023-08-16 13:13:30
31 sub/zero [1.2x] 3,345,245 3,023 - 7 - 0 - 1 - 1 1,681 2023-08-16 13:11:43
611 Break The Silence [1.2x] 279,400 183 - 4 - 0 - 1 - 2 178 2023-08-16 13:08:43
731 Break The Silence [1.2x] 90,385 56 - 2 - 1 - 0 - 1 59 2023-08-16 13:08:27
331 Break The Silence [1.2x] 730,825 738 - 9 - 0 - 5 - 0 324 2023-08-16 13:08:08
406 Break The Silence [1.2x] 688,700 440 - 6 - 0 - 3 - 1 446 2023-08-16 13:07:15
15 END OF SYSTEM [1.2x] 2,580,030 2,625 - 26 - 6 - 10 - 5 1,132 2023-08-15 13:37:54
33 VIS::CRACKED v2 [1.2x] 3,193,705 2,425 - 30 - 5 - 5 - 1 1,853 2023-08-15 13:35:28
16 VIS::CRACKED v2 [1.2x] 3,917,090 2,915 - 27 - 1 - 2 - 1 2,307 2023-08-15 13:32:42
45 Odd-22 [1.2x] 3,322,150 2,252 - 3 - 1 - 1 - 1 2,083 2023-08-15 13:29:23
572 Odd-22 [1.2x] 1,087,235 735 - 5 - 0 - 1 - 4 682 2023-08-15 13:27:16
332 Tachyon Beam Cannon 1,555,605 998 - 6 - 1 - 0 - 0 1,005 2023-08-15 13:25:42
942 Tachyon Beam Cannon 35,375 22 - 1 - 0 - 0 - 0 23 2023-08-15 13:24:44
943 Tachyon Beam Cannon 35,100 21 - 2 - 0 - 0 - 0 23 2023-08-15 13:24:41
706 Tachyon Beam Cannon 300,150 192 - 2 - 0 - 0 - 0 194 2023-08-15 13:24:36
908 Tachyon Beam Cannon 104,590 66 - 1 - 1 - 0 - 2 68 2023-08-15 13:24:25
931 Tachyon Beam Cannon 52,425 33 - 1 - 0 - 0 - 0 34 2023-08-15 13:24:17
122 goTe EX 1,409,815 959 - 2 - 3 - 1 - 2 882 2023-08-15 13:24:03
232 goTe EX 173,015 111 - 1 - 0 - 1 - 0 112 2023-08-15 13:22:55
111 eXXXcaliborg.Error 1,217,385 785 - 1 - 0 - 2 - 1 786 2023-08-15 13:21:45
124 eXXXcaliborg.Error 852,590 558 - 0 - 0 - 1 - 0 546 2023-08-15 13:21:10
319 Bolt Thrower In A Chinese Restaurant 2,369,385 1,529 - 3 - 0 - 1 - 4 1,528 2023-08-15 13:20:33
204 LWVIIX (Lawn Wake 69) 1,057,465 690 - 1 - 0 - 1 - 0 678 2023-08-15 13:18:40
1 POWA OF DA WILDANES [AAA] [FC] [PB] 6,441,800 4,156 - 0 - 0 - 0 - 0 4,156 2023-08-15 13:17:07
4,773 Fireball 289,180 184 - 8 - 0 - 20 - 1 192 2023-08-15 13:13:02
1 Blue Streaks of Happiness [PB] 6,342,030 5,785 - 6 - 0 - 1 - 3 3,159 2023-08-15 13:11:06
3 Blue Streaks of Happiness 4,884,745 5,783 - 5 - 0 - 4 - 2 1,704 2023-08-15 13:05:03
902 Hello (BPM) 2021 502,990 325 - 2 - 0 - 1 - 0 324 2023-08-15 12:59:23
37 dreamless wanderer 2,087,040 1,345 - 1 - 1 - 0 - 2 1,347 2023-08-15 12:58:49
2 dreamless wanderer [FC] 5,707,825 3,680 - 3 - 0 - 0 - 0 3,683 2023-08-15 12:57:08
255 That's Gonna Be [1.2x] 1,766,615 1,215 - 19 - 2 - 3 - 2 1,094 2023-08-15 12:53:28
52 That's Gonna Be 3,196,950 2,242 - 8 - 0 - 1 - 2 1,962 2023-08-15 12:52:16
60 END OF SYSTEM [1.2x] 1,070,525 687 - 2 - 3 - 0 - 2 692 2023-08-15 12:49:37
58 Endymion [1.2x] 1,355,000 1,372 - 2 - 2 - 4 - 1 601 2023-08-15 12:48:32
74 Endymion [1.2x] 593,490 396 - 0 - 0 - 1 - 0 376 2023-08-15 12:47:22
49 END OF SYSTEM [1.2x] 1,739,295 1,360 - 39 - 2 - 8 - 3 983 2023-08-15 12:46:47
4 END OF SYSTEM [FC] 4,133,575 2,666 - 1 - 0 - 0 - 0 2,667 2023-08-15 12:45:06
12 Illegal Trap [FC] 3,585,130 2,313 - 0 - 0 - 0 - 1 2,313 2023-08-15 12:42:08
91 Schwerkraft [1.2x] 1,316,005 1,082 - 27 - 2 - 5 - 4 715 2023-08-13 11:39:14
42 O Wings that Embrace Senju Banmei [1.2x] 1,695,280 1,608 - 16 - 2 - 5 - 4 808 2023-08-13 11:38:12
46 O Wings that Embrace Senju Banmei [1.2x] 980,515 887 - 9 - 2 - 6 - 3 492 2023-08-13 11:36:17
377 LeaF Style Super Shredder 3 [1.4x] 1,751,260 1,344 - 10 - 0 - 15 - 2 1,014 2023-08-13 11:35:01
318 WANDERLUST [1.4x] 2,103,855 1,709 - 27 - 2 - 5 - 4 1,158 2023-08-13 11:33:32
220 Flashbacklog [1.4x] 861,710 554 - 12 - 0 - 17 - 1 559 2023-08-13 11:31:34
329 For UltraPlayers [1.4x] 1,939,630 1,626 - 12 - 0 - 3 - 2 1,043 2023-08-13 11:30:49
161 For UltraPlayers [1.4x] [FC] 2,559,490 1,645 - 6 - 2 - 0 - 1 1,653 2023-08-13 11:28:08
195 Angel's Ladder [1.4x] 339,590 365 - 4 - 0 - 4 - 1 139 2023-08-13 11:26:35
213 Angel's Ladder [1.4x] 178,540 127 - 0 - 0 - 1 - 0 109 2023-08-13 11:26:10
106 Angel's Ladder [1.5x] 1,210,575 1,543 - 33 - 2 - 10 - 8 356 2023-08-13 11:25:53
78 The End of Dreams [1.5x] 3,268,995 2,380 - 19 - 2 - 4 - 5 1,956 2023-08-13 11:22:53
2,212 Double Helix [1.4x] 204,010 130 - 11 - 1 - 5 - 1 131 2023-08-13 11:20:35
2,177 Double Helix [1.4x] 208,335 145 - 3 - 0 - 4 - 0 129 2023-08-13 11:20:21
197 Double Helix [1.4x] 2,985,250 2,201 - 6 - 0 - 3 - 1 1,774 2023-08-13 11:18:47
2,381 Double Helix [1.4x] 43,705 28 - 1 - 0 - 3 - 2 29 2023-08-13 11:16:48
2 VIS::CRACKED v2 [FC] [PB] 4,564,730 2,945 - 0 - 0 - 0 - 1 2,945 2023-08-13 11:16:18
7 VIS::CRACKED v2 [PB] 4,558,240 2,938 - 6 - 0 - 1 - 0 2,941 2023-08-13 11:13:04
9 VIS::CRACKED v2 [PB] 3,309,600 2,922 - 21 - 1 - 1 - 1 1,697 2023-08-13 11:09:26
34 VIS::CRACKED v2 [SR] 601,045 398 - 1 - 0 - 23 - 0 389 2023-08-13 11:06:18
10 Blue Streaks of Happiness 1,545,530 1,213 - 2 - 0 - 7 - 0 880 2023-08-11 16:53:20
30 POWA OF DA WILDANES 2,492,905 1,610 - 2 - 1 - 20 - 0 1,613 2023-08-11 15:05:31
1 Blue Streaks of Happiness [PB] 8,414,075 5,784 - 4 - 3 - 1 - 4 5,232 2023-08-11 00:35:16
3 Blue Streaks of Happiness 2,435,075 1,569 - 6 - 1 - 18 - 0 1,576 2023-08-11 00:29:50
4 Blue Streaks of Happiness 536,680 348 - 4 - 0 - 22 - 0 351 2023-08-11 00:28:11
4 Blue Streaks of Happiness 183,645 118 - 0 - 1 - 1 - 0 119 2023-08-11 00:25:48
3 Blue Streaks of Happiness 2,677,830 1,726 - 3 - 5 - 21 - 3 1,734 2023-08-11 00:25:01
4 Blue Streaks of Happiness 535,420 347 - 4 - 0 - 21 - 1 350 2023-08-11 00:22:55
1 Blue Streaks of Happiness [PB] 8,703,245 5,777 - 13 - 0 - 2 - 3 5,523 2023-08-11 00:20:14
2 Blue Streaks of Happiness 5,476,635 5,764 - 22 - 1 - 5 - 6 2,302 2023-08-11 00:14:20
2 Blue Streaks of Happiness 531,915 341 - 4 - 1 - 9 - 0 346 2023-08-11 00:08:59
1 Blue Streaks of Happiness [SR] 5,629,740 5,769 - 17 - 3 - 3 - 6 2,453 2023-08-11 00:07:49
59 Illegal Trap 1,809,780 1,168 - 0 - 0 - 2 - 0 1,168 2023-08-11 00:02:13
214 Tachyon Beam Cannon 4,273,220 2,820 - 2 - 0 - 1 - 1 2,722 2023-08-09 12:34:57
817 Tachyon Beam Cannon 180,505 114 - 3 - 0 - 0 - 1 117 2023-08-09 12:32:35
921 Tachyon Beam Cannon 74,125 47 - 1 - 0 - 0 - 0 48 2023-08-09 12:32:26
946 Tachyon Beam Cannon 29,175 18 - 1 - 0 - 0 - 0 19 2023-08-09 12:32:22
938 Tachyon Beam Cannon 35,375 22 - 1 - 0 - 0 - 0 23 2023-08-09 12:32:18
924 Tachyon Beam Cannon 61,725 39 - 1 - 0 - 0 - 0 40 2023-08-09 12:32:14
702 Tachyon Beam Cannon 300,150 192 - 2 - 0 - 0 - 0 194 2023-08-09 12:32:10
950 Tachyon Beam Cannon 20,315 17 - 1 - 0 - 1 - 0 11 2023-08-09 12:31:56
121 goTe EX 1,411,085 956 - 7 - 0 - 2 - 1 884 2023-08-09 12:30:31
1 POWA OF DA WILDANES [FC] [PB] 6,441,760 4,156 - 0 - 0 - 0 - 2 4,156 2023-08-09 12:27:40
27 POWA OF DA WILDANES 1,931,095 1,253 - 1 - 0 - 1 - 1 1,242 2023-08-09 12:24:01
15 POWA OF DA WILDANES 5,160,940 3,568 - 9 - 1 - 3 - 3 3,197 2023-08-09 12:21:27
2 POWA OF DA WILDANES [PB] 4,642,365 4,142 - 13 - 0 - 1 - 0 2,361 2023-08-09 12:18:02
6 POWA OF DA WILDANES 4,064,510 4,141 - 9 - 1 - 5 - 1 1,786 2023-08-09 12:13:49
6 POWA OF DA WILDANES 4,928,925 4,141 - 11 - 2 - 2 - 7 2,649 2023-08-09 12:09:48
3 POWA OF DA WILDANES [SR] 4,910,935 4,142 - 10 - 1 - 3 - 2 2,631 2023-08-09 12:05:56
15 Illegal Trap [FC] 3,584,325 2,310 - 3 - 0 - 0 - 0 2,313 2023-08-09 12:02:02
90 Breath After Breath [1.2x] 1,408,630 904 - 5 - 1 - 0 - 0 910 2023-08-03 13:51:33
168 LWVIIX (Lawn Wake 69) 1,874,655 1,207 - 3 - 0 - 0 - 1 1,210 2023-08-03 13:49:21
1 Heartbreak Furry Fandom [0.8x] 6,229,720 6,716 - 26 - 2 - 4 - 5 2,530 2023-08-03 13:39:32
105 res extensa [1.2x] 1,115,595 717 - 13 - 0 - 1 - 1 718 2023-08-03 13:29:48
31 res extensa [1.2x] 2,389,520 3,317 - 159 - 15 - 42 - 18 534 2023-08-03 13:28:29
316 Critical.Error [1.2x] 303,525 195 - 1 - 0 - 0 - 0 196 2023-08-03 13:26:09
241 Critical.Error [1.2x] 625,905 403 - 1 - 0 - 0 - 1 404 2023-08-03 13:25:43
317 Tool-Assisted Speedcore (TQBF Frame Advance RMX) [1.2x] 3,721,000 2,398 - 5 - 1 - 1 - 1 2,401 2023-08-03 13:24:38
162 Fury [1.2x] 2,078,020 2,134 - 9 - 3 - 4 - 4 903 2023-08-03 13:22:15
527 Fury 3,100 2 - 0 - 0 - 0 - 0 2 2023-08-03 13:20:12
37 dreamless wanderer 456,975 294 - 1 - 0 - 0 - 0 295 2023-08-03 13:19:58
38 dreamless wanderer 244,350 156 - 2 - 0 - 0 - 0 158 2023-08-03 13:19:39
7 Endymion [1.2x] [FC] 3,824,850 2,466 - 2 - 0 - 0 - 0 2,468 2023-08-03 13:18:13
82 MAXX Nintendo [1.2x] 1,383,260 1,127 - 33 - 1 - 2 - 5 755 2023-08-03 13:15:51
82 MAXX Nintendo [1.2x] 1,394,470 1,140 - 20 - 0 - 3 - 5 763 2023-08-03 13:14:50
163 MAXX Nintendo [1.2x] 90,900 57 - 2 - 0 - 0 - 0 59 2023-08-03 13:13:51
29 Sinthasomphone [1.2x] 2,080,455 1,909 - 9 - 0 - 3 - 2 1,029 2023-08-03 13:12:48
60 OWA Raged at Home Run Derby [1.2x] 3,824,625 3,025 - 38 - 1 - 5 - 4 2,152 2023-08-03 13:10:45
118 OWA Raged at Home Run Derby [1.2x] 110,760 71 - 1 - 1 - 2 - 0 72 2023-08-03 13:07:51
119 OWA Raged at Home Run Derby [1.2x] 44,480 42 - 0 - 0 - 2 - 0 22 2023-08-03 13:07:44
68 44 Edit v2 [1.2x] 222,375 141 - 3 - 0 - 0 - 0 144 2023-08-03 13:07:25
69 44 Edit v2 [1.2x] 206,875 131 - 3 - 0 - 0 - 0 134 2023-08-03 13:07:04
17 END OF SYSTEM [1.2x] 2,337,050 2,610 - 35 - 5 - 17 - 4 897 2023-08-03 13:06:11
803 Powerflux [1.2x] 1,014,725 944 - 9 - 0 - 3 - 1 494 2023-08-03 13:03:36
66 You Show [1.2x] 2,485,145 1,820 - 10 - 1 - 2 - 2 1,482 2023-08-03 13:02:18
198 The Bird's Snapshot Lifespan [1.2x] 1,437,440 1,519 - 14 - 2 - 3 - 2 599 2023-08-03 12:59:29
258 The Bird's Snapshot Lifespan [1.2x] 699,545 532 - 1 - 0 - 1 - 1 407 2023-08-03 12:57:37
356 The Bird's Snapshot Lifespan [1.2x] 13,400 7 - 2 - 0 - 0 - 0 9 2023-08-03 12:56:49
81 99.9 (Eurobeat Remix) [1.2x] 1,039,340 694 - 3 - 3 - 1 - 2 657 2023-08-03 12:56:12
76 99.9 (Eurobeat Remix) [1.2x] 936,285 890 - 6 - 1 - 6 - 3 447 2023-08-03 12:55:31
101 Zen'on 807,990 666 - 0 - 0 - 1 - 0 442 2023-08-03 12:54:08
15 Schwerkraft [FC] 3,401,420 2,193 - 1 - 1 - 0 - 3 2,195 2023-08-03 12:52:40
90 Schwerkraft 1,696,410 1,110 - 2 - 0 - 2 - 1 1,086 2023-08-03 12:49:38
11,031 Reluctantly Accepting Temporary Overexhaustion 1,043,045 726 - 15 - 0 - 14 - 2 644 2023-08-03 12:48:16
55 Illegal Trap 672,150 432 - 2 - 0 - 0 - 0 434 2023-08-02 13:52:36
60 Illegal Trap 137,410 91 - 2 - 0 - 7 - 1 89 2023-08-02 13:51:52
49 Illegal Trap 1,150,240 740 - 4 - 0 - 6 - 0 744 2023-08-02 13:51:03
28 dreamless wanderer 3,069,365 1,988 - 1 - 0 - 1 - 0 1,976 2023-07-31 13:03:24
33 dreamless wanderer 441,475 284 - 1 - 0 - 0 - 0 285 2023-07-31 13:01:19
59 44 Edit v2 [1.2x] 1,631,535 1,047 - 6 - 1 - 0 - 1 1,054 2023-07-31 13:00:31
67 44 Edit v2 [1.2x] 255,475 164 - 1 - 0 - 0 - 0 165 2023-07-31 12:59:22
68 44 Edit v2 [1.2x] 21,700 14 - 0 - 0 - 0 - 0 14 2023-07-31 12:58:57
38 44 Edit v2 [1.2x] 2,477,725 2,992 - 29 - 0 - 9 - 3 827 2023-07-31 12:58:08
72 Sinthasomphone [1.2x] 1,994,810 1,888 - 25 - 3 - 5 - 4 951 2023-07-31 12:54:15
29 Sinthasomphone [1.2x] 2,349,785 1,908 - 11 - 0 - 2 - 1 1,298 2023-07-31 12:51:56
29 dreamless wanderer 2,043,735 1,350 - 9 - 2 - 1 - 2 1,299 2023-07-31 12:49:51
33 dreamless wanderer 624,375 402 - 1 - 0 - 0 - 0 403 2023-07-31 12:48:38
1,389 Staple on Smile 446,240 301 - 0 - 0 - 1 - 0 281 2023-07-31 12:43:17
1,354 Staple on Smile 504,730 324 - 2 - 0 - 0 - 1 326 2023-07-31 12:42:50
1,353 Staple on Smile 505,280 326 - 0 - 0 - 0 - 1 326 2023-07-31 12:42:27
1,592 Staple on Smile 219,275 139 - 3 - 0 - 0 - 0 142 2023-07-31 12:42:01
1,597 Staple on Smile 209,315 136 - 3 - 0 - 1 - 0 134 2023-07-31 12:41:49
624 Staple on Smile 2,182,060 1,403 - 5 - 1 - 0 - 1 1,409 2023-07-31 12:41:24
1,469 Staple on Smile 373,530 241 - 0 - 0 - 0 - 1 241 2023-07-31 12:40:02
1,354 Staple on Smile 504,750 324 - 2 - 0 - 0 - 0 326 2023-07-31 12:39:43
1,591 Staple on Smile 219,805 141 - 1 - 0 - 0 - 1 142 2023-07-31 12:39:20
1 Illegal Trap [AAA] [FC] [SR] 3,585,150 2,313 - 0 - 0 - 0 - 0 2,313 2023-07-31 12:36:41
806 Powerflux [1.2x] 1,205,015 938 - 15 - 0 - 3 - 4 686 2023-07-30 14:21:03
1,951 Powerflux [1.2x] 20,565 11 - 3 - 0 - 1 - 0 14 2023-07-30 14:20:14
1,769 Powerflux [1.2x] 69,905 54 - 3 - 0 - 2 - 0 40 2023-07-30 14:20:11
1,764 Powerflux [1.2x] 86,765 57 - 1 - 0 - 6 - 0 57 2023-07-30 14:20:05
166 Fury [1.2x] 3,161,805 2,038 - 17 - 4 - 3 - 3 2,037 2023-07-30 14:19:31
110 Fury [1.2x] 2,897,205 3,297 - 23 - 2 - 24 - 7 1,085 2023-07-30 14:16:57
489 Fury [1.2x] 36,440 25 - 0 - 0 - 1 - 0 23 2023-07-30 14:14:09
512 Fury [1.2x] 12,125 7 - 1 - 0 - 0 - 0 8 2023-07-30 14:14:00
58 eXXXcaliborg.Error 2,906,960 1,899 - 10 - 2 - 1 - 2 1,860 2023-07-30 14:13:19
26 dreamless wanderer 1,921,295 1,235 - 7 - 0 - 6 - 1 1,242 2023-07-30 14:11:49
30 dreamless wanderer 68,545 44 - 1 - 0 - 3 - 0 45 2023-07-30 14:10:45
26 dreamless wanderer 2,228,350 1,436 - 2 - 0 - 0 - 0 1,438 2023-07-30 14:09:56
30 dreamless wanderer 248,345 160 - 1 - 0 - 3 - 0 161 2023-07-30 14:08:43
28 dreamless wanderer 905,740 591 - 0 - 0 - 1 - 0 581 2023-07-30 14:08:29
2 dreamless wanderer [FC] 5,707,530 3,679 - 4 - 0 - 0 - 1 3,683 2023-07-30 14:07:06
30 dreamless wanderer 119,695 77 - 1 - 0 - 3 - 0 78 2023-07-30 14:03:45
30 dreamless wanderer 345,995 224 - 1 - 0 - 8 - 0 225 2023-07-30 14:03:31
30 dreamless wanderer 235,670 151 - 2 - 0 - 3 - 0 153 2023-07-30 14:03:00
28 dreamless wanderer 1,289,895 843 - 3 - 0 - 18 - 0 831 2023-07-30 14:02:43
26 dreamless wanderer 2,226,995 1,433 - 4 - 1 - 1 - 0 1,438 2023-07-30 14:01:41
28 dreamless wanderer 1,133,600 733 - 1 - 1 - 6 - 1 732 2023-07-30 14:00:24
28 dreamless wanderer 1,307,835 856 - 1 - 0 - 4 - 0 838 2023-07-30 13:59:04
26 dreamless wanderer 2,229,330 1,435 - 4 - 0 - 0 - 1 1,439 2023-07-30 13:57:55
44 END OF SYSTEM [1.2x] 2,338,735 1,860 - 28 - 3 - 13 - 5 1,312 2023-07-30 13:56:30
51 END OF SYSTEM [1.2x] 1,781,670 1,170 - 23 - 1 - 7 - 2 1,134 2023-07-30 13:54:42
111 Schwerkraft [1.2x] 1,082,665 692 - 7 - 2 - 3 - 2 701 2023-07-30 13:53:02
132 Schwerkraft [1.2x] 616,175 402 - 2 - 1 - 21 - 1 401 2023-07-30 13:52:20
150 Schwerkraft [1.2x] 35,685 23 - 1 - 0 - 4 - 0 24 2023-07-30 13:51:53
125 Mdrqnxtagon [1.2x] 1,652,925 1,066 - 3 - 2 - 17 - 2 1,071 2023-07-30 13:51:25
193 Mdrqnxtagon [1.2x] 121,990 86 - 0 - 0 - 1 - 0 75 2023-07-30 13:50:28
194 Mdrqnxtagon [1.2x] 118,690 81 - 0 - 0 - 6 - 0 76 2023-07-30 13:50:12
13 Shindeiru [1.2x] [FC] 3,105,610 2,002 - 2 - 0 - 0 - 2 2,004 2023-07-30 13:49:42
12 Illegal Trap [1.2x] [FC] 3,584,265 2,310 - 3 - 0 - 0 - 3 2,313 2023-07-30 13:47:13
39 Illegal Trap [1.2x] 607,395 394 - 0 - 1 - 14 - 1 395 2023-07-30 13:45:08
13 Illegal Trap [1.2x] 2,689,500 2,310 - 1 - 1 - 1 - 1 1,419 2023-07-30 13:44:04
39 Illegal Trap [1.2x] 579,895 542 - 3 - 0 - 13 - 0 285 2023-07-30 13:41:46
40 Illegal Trap [1.2x] 484,360 315 - 1 - 1 - 20 - 1 317 2023-07-30 13:41:06
292 J-CORE SLi//CER Technique [1.2x] 1,224,390 796 - 4 - 0 - 21 - 0 792 2023-07-30 13:40:10
2,431 Fushigi Usagi Milk Tei [1.2x] 706,865 459 - 1 - 0 - 6 - 0 456 2023-07-30 13:39:05
82 Finding Her Not [1.2x] 3,981,280 2,991 - 12 - 4 - 7 - 6 2,335 2023-07-30 13:38:14
811 Heartbreak Furry Fandom [0.8x] 246,590 154 - 8 - 0 - 1 - 0 160 2023-07-28 15:16:25
948 Heartbreak Furry Fandom [0.8x] 83,875 50 - 5 - 0 - 0 - 0 55 2023-07-28 15:16:14
296 Heartbreak Furry Fandom [0.8x] 1,574,460 1,005 - 9 - 5 - 0 - 2 1,019 2023-07-28 15:15:59
44 Crystal Chamber Combustion (bike) 3,247,235 2,167 - 19 - 10 - 1 - 4 2,050 2023-07-28 15:14:19
11 dreamless wanderer 2,172,475 1,945 - 0 - 1 - 1 - 1 1,103 2023-07-28 15:12:27
1 dreamless wanderer [FC] [PB] 5,707,825 3,680 - 3 - 0 - 0 - 0 3,683 2023-07-28 15:08:03
12 dreamless wanderer 1,621,785 1,044 - 2 - 1 - 0 - 1 1,047 2023-07-28 15:04:04
11 dreamless wanderer 2,386,555 1,978 - 1 - 0 - 2 - 0 1,299 2023-07-28 15:03:01
16 dreamless wanderer 676,525 434 - 3 - 0 - 0 - 0 437 2023-07-28 15:01:08
16 dreamless wanderer 666,730 427 - 3 - 1 - 0 - 0 431 2023-07-28 15:00:40
11 dreamless wanderer 2,706,420 1,743 - 4 - 0 - 1 - 1 1,747 2023-07-28 15:00:08
16 dreamless wanderer 2,220 0 - 2 - 0 - 1 - 1 2 2023-07-28 14:57:49
16 dreamless wanderer 345,375 222 - 1 - 0 - 0 - 0 223 2023-07-28 14:57:43
16 dreamless wanderer 655,540 426 - 2 - 0 - 1 - 0 421 2023-07-28 14:57:26
210 goTe EX 346,650 222 - 2 - 0 - 0 - 0 224 2023-07-28 14:56:45
2,621 Fireball 912,455 610 - 8 - 1 - 4 - 3 576 2023-07-28 14:56:15
2,566 Fireball 852,830 636 - 16 - 0 - 1 - 3 499 2023-07-28 14:55:32
3,340 Fireball 417,645 409 - 5 - 0 - 2 - 3 192 2023-07-28 14:54:51
224 LWVIIX (Lawn Wake 69) 839,550 540 - 2 - 0 - 0 - 0 542 2023-07-28 14:54:12
239 LWVIIX (Lawn Wake 69) 710,880 457 - 2 - 0 - 0 - 1 459 2023-07-28 14:53:39
114 eXXXcaliborg.Error 1,059,540 686 - 2 - 0 - 1 - 0 682 2023-07-28 14:53:06
192 eXXXcaliborg.Error 74,125 47 - 1 - 0 - 0 - 0 48 2023-07-28 14:52:33
111 eXXXcaliborg.Error 1,131,225 729 - 1 - 0 - 0 - 0 730 2023-07-28 14:52:22
876 Crystal Chamber Combustion (bike) 637,530 491 - 4 - 0 - 2 - 0 367 2023-07-28 14:50:30
1,179 Crystal Chamber Combustion (bike) 251,645 189 - 11 - 0 - 1 - 1 145 2023-07-28 14:50:00
1,007 Hello (BPM) 2021 311,015 231 - 1 - 0 - 1 - 0 184 2023-07-28 14:49:37
5 dreamless wanderer 5,420,485 3,493 - 5 - 0 - 0 - 2 3,498 2023-07-28 14:48:52
14 dreamless wanderer 810,375 522 - 1 - 0 - 0 - 0 523 2023-07-28 14:45:43
1 dreamless wanderer [FC] [PB] 5,707,235 3,678 - 5 - 0 - 0 - 2 3,683 2023-07-28 14:43:36
183 Isometry 1,229,115 812 - 3 - 0 - 1 - 0 782 2023-07-28 14:40:08
16 dreamless wanderer 657,965 428 - 3 - 2 - 1 - 3 422 2023-07-28 14:39:06
12 dreamless wanderer 1,504,315 977 - 1 - 0 - 1 - 0 967 2023-07-28 14:38:36
12 dreamless wanderer 2,092,205 1,343 - 5 - 4 - 0 - 2 1,352 2023-07-28 14:37:05
16 dreamless wanderer 37,180 24 - 0 - 0 - 0 - 1 24 2023-07-28 14:35:56
16 dreamless wanderer 441,475 284 - 1 - 0 - 0 - 0 285 2023-07-28 14:35:48
8 dreamless wanderer 4,349,205 2,799 - 6 - 3 - 0 - 3 2,808 2023-07-28 14:35:18
16 dreamless wanderer 657,215 435 - 1 - 0 - 1 - 0 418 2023-07-28 14:32:46
1 2 3 4 5 6 7 8 9 10 11 12 13